QTR2N OTHH-KBOS
Flight info
| Callsign | QTR2N |
|---|---|
| Flight time | N/A |
| Altitude | 34000 |
| Route | TULUB B457 NARMI J735 KFA H741 JBL L768 MODAD B544 ALE M861 NISAP UM861 BELSU/N0494F360 UA17 YAVRU UA4 ERKAL UL615 DIGBO UQ26 TUDBU Q26 ETUBA T226 NAVOD DCT PADGU DCT KEROP DCT SASAL DCT SUBEN T161 AKINI T159 PETIX Z744 COSJE T892 RIDSU Z114 ADENU L608 BATTY/N0487F380 L608 DENUT L610 KOPUL Q63 ICTAM L179 SAWPE DCT UNFIT DCT LEDGO DCT UNLID DCT ELSOX/M084F380 DCT DINIM/M084F390 DCT 5130N02000W 5130N03000W 51N040W 4830N05000W DCT MUSAK/N0478F400 N296B TUSKY DCT EURRO DCT OOSHN OOSHN5 |
| Aircraft | A359/H-SDE2E3GHIJ3J4J5LM1ORWXY/LB1D1 |
Departure
| Time | 2026-05-05 22:33 |
|---|---|
| Airport | Hamad International Airport (OTHH) |
Arrival
| Time | N/A |
|---|---|
| Airport | Boston Logan International Airport (KBOS) |
| Time | Latitude | Longitude | Altitude | Speed | Heading |
|---|---|---|---|---|---|
| 2026-05-05 21:41 | 25.26711 | 51.60832 | 36 ft | 0 kts | 23° |
| 2026-05-05 22:20 | 25.26708 | 51.60830 | 36 ft | 3 kts | 23° |
| 2026-05-05 22:20 | 25.26684 | 51.60819 | 50 ft | 4 kts | 23° |
| 2026-05-05 22:21 | 25.26658 | 51.60809 | 33 ft | 4 kts | 6° |
| 2026-05-05 22:21 | 25.26633 | 51.60811 | 34 ft | 4 kts | 335° |
| 2026-05-05 22:21 | 25.26614 | 51.60828 | 35 ft | 2 kts | 294° |
| 2026-05-05 22:21 | 25.26613 | 51.60830 | 35 ft | 0 kts | 293° |
| 2026-05-05 22:24 | 25.26617 | 51.60821 | 36 ft | 3 kts | 294° |
| 2026-05-05 22:24 | 25.26636 | 51.60774 | 36 ft | 10 kts | 294° |
| 2026-05-05 22:25 | 25.26676 | 51.60673 | 36 ft | 18 kts | 289° |
| 2026-05-05 22:25 | 25.26655 | 51.60513 | 36 ft | 25 kts | 249° |
| 2026-05-05 22:25 | 25.26640 | 51.60379 | 35 ft | 8 kts | 322° |
| 2026-05-05 22:25 | 25.26718 | 51.60332 | 35 ft | 17 kts | 340° |
| 2026-05-05 22:26 | 25.26853 | 51.60274 | 35 ft | 25 kts | 338° |
| 2026-05-05 22:26 | 25.27028 | 51.60204 | 35 ft | 26 kts | 358° |
| 2026-05-05 22:26 | 25.27059 | 51.60224 | 36 ft | 4 kts | 66° |
| 2026-05-05 22:26 | 25.27082 | 51.60283 | 36 ft | 12 kts | 69° |
| 2026-05-05 22:27 | 25.27116 | 51.60382 | 36 ft | 19 kts | 69° |
| 2026-05-05 22:27 | 25.27169 | 51.60519 | 36 ft | 25 kts | 66° |
| 2026-05-05 22:27 | 25.27240 | 51.60714 | 36 ft | 30 kts | 70° |
| 2026-05-05 22:27 | 25.27317 | 51.60925 | 36 ft | 26 kts | 67° |
| 2026-05-05 22:28 | 25.27391 | 51.61129 | 36 ft | 27 kts | 68° |
| 2026-05-05 22:28 | 25.27456 | 51.61308 | 36 ft | 28 kts | 69° |
| 2026-05-05 22:28 | 25.27532 | 51.61512 | 35 ft | 23 kts | 68° |
| 2026-05-05 22:28 | 25.27605 | 51.61563 | 35 ft | 14 kts | 351° |
| 2026-05-05 22:29 | 25.27722 | 51.61518 | 34 ft | 22 kts | 337° |
| 2026-05-05 22:29 | 25.27885 | 51.61445 | 34 ft | 29 kts | 338° |
| 2026-05-05 22:29 | 25.28084 | 51.61358 | 35 ft | 33 kts | 338° |
| 2026-05-05 22:29 | 25.28262 | 51.61279 | 35 ft | 24 kts | 338° |
| 2026-05-05 22:30 | 25.28430 | 51.61205 | 36 ft | 27 kts | 338° |
| 2026-05-05 22:30 | 25.28612 | 51.61125 | 35 ft | 28 kts | 338° |
| 2026-05-05 22:30 | 25.28794 | 51.61045 | 35 ft | 26 kts | 338° |
| 2026-05-05 22:30 | 25.28964 | 51.60970 | 35 ft | 24 kts | 338° |
| 2026-05-05 22:31 | 25.29114 | 51.60904 | 34 ft | 24 kts | 338° |
| 2026-05-05 22:31 | 25.29279 | 51.60831 | 34 ft | 26 kts | 338° |
| 2026-05-05 22:31 | 25.29433 | 51.60763 | 34 ft | 21 kts | 338° |
| 2026-05-05 22:31 | 25.29516 | 51.60747 | 34 ft | 11 kts | 27° |
| 2026-05-05 22:32 | 25.29564 | 51.60828 | 32 ft | 15 kts | 67° |
| 2026-05-05 22:32 | 25.29561 | 51.60903 | 31 ft | 7 kts | 148° |
| 2026-05-05 22:32 | 25.29508 | 51.60931 | 31 ft | 13 kts | 157° |
| 2026-05-05 22:32 | 25.29294 | 51.61025 | 30 ft | 62 kts | 158° |
| 2026-05-05 22:33 | 25.28717 | 51.61280 | 35 ft | 116 kts | 158° |
| 2026-05-05 22:33 | 25.27810 | 51.61675 | 33 ft | 162 kts | 158° |
| 2026-05-05 22:33 | 25.26641 | 51.62185 | 214 ft | 189 kts | 158° |
| 2026-05-05 22:33 | 25.25415 | 51.62716 | 776 ft | 187 kts | 157° |
| 2026-05-05 22:34 | 25.24190 | 51.63246 | 1280 ft | 187 kts | 157° |
| 2026-05-05 22:34 | 25.22975 | 51.63770 | 1500 ft | 193 kts | 154° |
| 2026-05-05 22:34 | 25.21837 | 51.64620 | 1668 ft | 199 kts | 133° |
| 2026-05-05 22:34 | 25.21057 | 51.65866 | 1860 ft | 203 kts | 112° |
| 2026-05-05 22:35 | 25.20706 | 51.67407 | 2074 ft | 208 kts | 93° |
| 2026-05-05 22:35 | 25.20797 | 51.68997 | 2308 ft | 212 kts | 83° |
| 2026-05-05 22:35 | 25.21021 | 51.70650 | 2521 ft | 220 kts | 72° |
| 2026-05-05 22:35 | 25.21702 | 51.72183 | 2668 ft | 232 kts | 62° |
| 2026-05-05 22:36 | 25.22342 | 51.73870 | 2843 ft | 245 kts | 72° |
| 2026-05-05 22:36 | 25.22744 | 51.75742 | 3087 ft | 255 kts | 79° |
| 2026-05-05 22:36 | 25.22987 | 51.77681 | 3442 ft | 261 kts | 82° |
| 2026-05-05 22:36 | 25.23374 | 51.79648 | 3786 ft | 265 kts | 66° |
| 2026-05-05 22:37 | 25.24386 | 51.81324 | 4190 ft | 265 kts | 41° |
| 2026-05-05 22:37 | 25.25985 | 51.82358 | 4628 ft | 265 kts | 15° |
| 2026-05-05 22:37 | 25.27783 | 51.82512 | 4999 ft | 267 kts | 351° |
| 2026-05-05 22:37 | 25.29515 | 51.81735 | 5399 ft | 269 kts | 324° |
| 2026-05-05 22:38 | 25.30800 | 51.80267 | 5813 ft | 272 kts | 310° |
| 2026-05-05 22:38 | 25.32226 | 51.78896 | 6162 ft | 273 kts | 333° |
| 2026-05-05 22:38 | 25.33964 | 51.78046 | 6580 ft | 274 kts | 339° |
| 2026-05-05 22:38 | 25.35738 | 51.77275 | 6993 ft | 275 kts | 339° |
| 2026-05-05 22:39 | 25.37517 | 51.76502 | 7419 ft | 276 kts | 338° |
| 2026-05-05 22:39 | 25.39310 | 51.75719 | 7847 ft | 277 kts | 338° |
| 2026-05-05 22:39 | 25.41115 | 51.74931 | 8293 ft | 279 kts | 338° |
| 2026-05-05 22:39 | 25.42913 | 51.74145 | 8752 ft | 280 kts | 338° |
| 2026-05-05 22:40 | 25.44738 | 51.73346 | 9214 ft | 281 kts | 338° |
| 2026-05-05 22:40 | 25.46555 | 51.72548 | 9672 ft | 283 kts | 338° |
| 2026-05-05 22:40 | 25.48387 | 51.71744 | 10102 ft | 285 kts | 338° |
| 2026-05-05 22:40 | 25.50268 | 51.70918 | 10329 ft | 296 kts | 338° |
| 2026-05-05 22:41 | 25.52220 | 51.70060 | 10553 ft | 306 kts | 338° |
| 2026-05-05 22:41 | 25.54241 | 51.69186 | 10782 ft | 317 kts | 339° |
| 2026-05-05 22:41 | 25.56364 | 51.68389 | 10977 ft | 327 kts | 341° |
| 2026-05-05 22:41 | 25.58558 | 51.67602 | 11204 ft | 337 kts | 341° |
| 2026-05-05 22:42 | 25.60821 | 51.66781 | 11432 ft | 347 kts | 341° |
| 2026-05-05 22:42 | 25.63113 | 51.65941 | 11613 ft | 356 kts | 341° |
| 2026-05-05 22:42 | 25.65497 | 51.65062 | 11807 ft | 365 kts | 341° |
| 2026-05-05 22:42 | 25.67937 | 51.64159 | 12026 ft | 372 kts | 341° |
| 2026-05-05 22:43 | 25.70395 | 51.63248 | 12334 ft | 376 kts | 341° |
| 2026-05-05 22:43 | 25.72049 | 51.62634 | 12561 ft | 378 kts | 341° |
| 2026-05-05 22:43 | 25.74544 | 51.61660 | 12918 ft | 381 kts | 338° |
| 2026-05-05 22:43 | 25.76973 | 51.60511 | 13282 ft | 383 kts | 336° |
| 2026-05-05 22:44 | 25.79430 | 51.59316 | 13657 ft | 385 kts | 336° |
| 2026-05-05 22:44 | 25.81894 | 51.58121 | 13991 ft | 388 kts | 335° |
| 2026-05-05 22:44 | 25.84187 | 51.56585 | 14302 ft | 390 kts | 320° |
| 2026-05-05 22:44 | 25.85960 | 51.54352 | 14666 ft | 390 kts | 302° |
| 2026-05-05 22:45 | 25.87315 | 51.51688 | 15009 ft | 393 kts | 298° |
| 2026-05-05 22:45 | 25.88604 | 51.48994 | 15347 ft | 395 kts | 298° |
| 2026-05-05 22:45 | 25.89896 | 51.46298 | 15696 ft | 397 kts | 298° |
| 2026-05-05 22:45 | 25.91200 | 51.43587 | 16037 ft | 399 kts | 298° |
| 2026-05-05 22:46 | 25.92517 | 51.40855 | 16368 ft | 401 kts | 298° |
| 2026-05-05 22:46 | 25.93822 | 51.38152 | 16690 ft | 403 kts | 298° |
| 2026-05-05 22:46 | 25.95167 | 51.35365 | 17029 ft | 405 kts | 298° |
| 2026-05-05 22:46 | 25.96487 | 51.32632 | 17374 ft | 407 kts | 298° |
| 2026-05-05 22:47 | 25.97826 | 51.29858 | 17752 ft | 408 kts | 298° |
| 2026-05-05 22:47 | 25.99142 | 51.27068 | 18082 ft | 410 kts | 297° |
| 2026-05-05 22:47 | 26.00455 | 51.24245 | 18349 ft | 412 kts | 297° |
| 2026-05-05 22:47 | 26.01776 | 51.21407 | 18658 ft | 414 kts | 297° |
| 2026-05-05 22:48 | 26.03105 | 51.18558 | 18974 ft | 415 kts | 297° |
| 2026-05-05 22:48 | 26.04437 | 51.15705 | 19317 ft | 416 kts | 296° |
| 2026-05-05 22:48 | 26.05772 | 51.12844 | 19646 ft | 418 kts | 296° |
| 2026-05-05 22:48 | 26.07109 | 51.09978 | 19964 ft | 420 kts | 296° |
| 2026-05-05 22:49 | 26.08459 | 51.07083 | 20278 ft | 422 kts | 296° |
| 2026-05-05 22:49 | 26.09816 | 51.04172 | 20588 ft | 424 kts | 296° |
| 2026-05-05 22:49 | 26.11172 | 51.01261 | 20908 ft | 426 kts | 296° |
| 2026-05-05 22:49 | 26.12515 | 50.98316 | 21229 ft | 428 kts | 294° |
| 2026-05-05 22:50 | 26.13778 | 50.95302 | 21554 ft | 429 kts | 292° |
| 2026-05-05 22:50 | 26.14998 | 50.92262 | 21855 ft | 431 kts | 292° |
| 2026-05-05 22:50 | 26.16207 | 50.89215 | 22145 ft | 433 kts | 292° |
| 2026-05-05 22:50 | 26.17436 | 50.86137 | 22512 ft | 434 kts | 292° |
| 2026-05-05 22:51 | 26.18673 | 50.83065 | 22870 ft | 435 kts | 292° |
| 2026-05-05 22:51 | 26.19923 | 50.79987 | 23212 ft | 437 kts | 292° |
| 2026-05-05 22:51 | 26.21184 | 50.76900 | 23518 ft | 439 kts | 292° |
| 2026-05-05 22:51 | 26.22431 | 50.73852 | 23834 ft | 439 kts | 292° |
| 2026-05-05 22:52 | 26.23715 | 50.70720 | 24168 ft | 439 kts | 292° |
| 2026-05-05 22:52 | 26.24948 | 50.67600 | 24511 ft | 439 kts | 288° |
| 2026-05-05 22:52 | 26.25827 | 50.64402 | 24837 ft | 437 kts | 280° |
| 2026-05-05 22:52 | 26.26422 | 50.61040 | 25138 ft | 437 kts | 278° |
| 2026-05-05 22:53 | 26.26915 | 50.57700 | 25478 ft | 437 kts | 277° |
| 2026-05-05 22:53 | 26.27356 | 50.54341 | 25831 ft | 437 kts | 276° |
| 2026-05-05 22:53 | 26.27769 | 50.51031 | 26168 ft | 438 kts | 276° |
| 2026-05-05 22:53 | 26.28188 | 50.47633 | 26548 ft | 437 kts | 276° |
| 2026-05-05 22:54 | 26.28598 | 50.44330 | 26955 ft | 436 kts | 276° |
| 2026-05-05 22:54 | 26.29020 | 50.40970 | 27257 ft | 438 kts | 276° |
| 2026-05-05 22:54 | 26.29446 | 50.37602 | 27470 ft | 441 kts | 276° |
| 2026-05-05 22:54 | 26.29959 | 50.34187 | 27765 ft | 443 kts | 280° |
| 2026-05-05 22:55 | 26.30812 | 50.30923 | 28098 ft | 445 kts | 287° |
| 2026-05-05 22:55 | 26.31885 | 50.27692 | 28401 ft | 447 kts | 288° |
| 2026-05-05 22:55 | 26.33023 | 50.24448 | 28715 ft | 448 kts | 288° |
| 2026-05-05 22:55 | 26.34180 | 50.21238 | 28983 ft | 448 kts | 289° |
| 2026-05-05 22:56 | 26.35360 | 50.17997 | 29224 ft | 450 kts | 288° |
| 2026-05-05 22:56 | 26.36536 | 50.14763 | 29427 ft | 452 kts | 288° |
| 2026-05-05 22:56 | 26.37715 | 50.11510 | 29670 ft | 452 kts | 288° |
| 2026-05-05 22:56 | 26.38886 | 50.08267 | 29912 ft | 453 kts | 288° |
| 2026-05-05 22:57 | 26.40061 | 50.04998 | 30097 ft | 454 kts | 288° |
| 2026-05-05 22:57 | 26.41223 | 50.01759 | 30313 ft | 454 kts | 288° |
| 2026-05-05 22:57 | 26.42398 | 49.98479 | 30533 ft | 454 kts | 287° |
| 2026-05-05 22:57 | 26.43569 | 49.95205 | 30748 ft | 454 kts | 287° |
| 2026-05-05 22:58 | 26.44739 | 49.91932 | 30967 ft | 454 kts | 287° |
| 2026-05-05 22:58 | 26.45909 | 49.88658 | 31203 ft | 454 kts | 287° |
| 2026-05-05 22:58 | 26.47083 | 49.85391 | 31421 ft | 454 kts | 288° |
| 2026-05-05 22:58 | 26.48474 | 49.82207 | 31613 ft | 459 kts | 294° |
| 2026-05-05 22:59 | 26.50252 | 49.79215 | 31807 ft | 466 kts | 302° |
| 2026-05-05 22:59 | 26.52429 | 49.76510 | 32006 ft | 474 kts | 309° |
| 2026-05-05 22:59 | 26.55003 | 49.74162 | 32202 ft | 483 kts | 317° |
| 2026-05-05 22:59 | 26.57799 | 49.72048 | 32370 ft | 485 kts | 319° |
| 2026-05-05 23:00 | 26.63511 | 49.68004 | 32703 ft | 487 kts | 320° |
| 2026-05-05 23:00 | 26.66390 | 49.65999 | 32880 ft | 487 kts | 320° |
| 2026-05-05 23:00 | 26.69258 | 49.63993 | 33035 ft | 487 kts | 320° |
| 2026-05-05 23:01 | 26.72091 | 49.62000 | 33224 ft | 487 kts | 319° |
| 2026-05-05 23:01 | 26.74966 | 49.59965 | 33401 ft | 487 kts | 319° |
| 2026-05-05 23:01 | 26.77766 | 49.57978 | 33566 ft | 487 kts | 319° |
| 2026-05-05 23:01 | 26.80488 | 49.56036 | 33702 ft | 487 kts | 319° |
| 2026-05-05 23:02 | 26.86284 | 49.51878 | 33727 ft | 493 kts | 319° |
| 2026-05-05 23:02 | 26.92044 | 49.47756 | 33743 ft | 493 kts | 318° |
| 2026-05-05 23:03 | 26.97765 | 49.43575 | 33739 ft | 485 kts | 314° |
| 2026-05-05 23:03 | 27.00292 | 49.41143 | 33740 ft | 474 kts | 306° |
| 2026-05-05 23:03 | 27.02418 | 49.38379 | 33740 ft | 463 kts | 297° |
| 2026-05-05 23:04 | 27.05722 | 49.32386 | 33739 ft | 457 kts | 292° |
| 2026-05-05 23:04 | 27.08832 | 49.26175 | 33751 ft | 456 kts | 291° |
| 2026-05-05 23:05 | 27.11914 | 49.19960 | 33753 ft | 456 kts | 291° |
| 2026-05-05 23:05 | 27.15010 | 49.13756 | 33759 ft | 457 kts | 291° |
| 2026-05-05 23:06 | 27.18126 | 49.07534 | 33770 ft | 457 kts | 291° |
| 2026-05-05 23:06 | 27.21227 | 49.01343 | 33771 ft | 455 kts | 291° |
| 2026-05-05 23:07 | 27.24333 | 48.95139 | 33774 ft | 454 kts | 291° |
| 2026-05-05 23:07 | 27.27417 | 48.88945 | 33776 ft | 454 kts | 291° |
| 2026-05-05 23:08 | 27.30496 | 48.82749 | 33779 ft | 454 kts | 291° |
| 2026-05-05 23:08 | 27.33572 | 48.76556 | 33788 ft | 453 kts | 291° |
| 2026-05-05 23:09 | 27.36638 | 48.70383 | 33792 ft | 451 kts | 291° |
| 2026-05-05 23:09 | 27.39693 | 48.64218 | 33802 ft | 451 kts | 291° |
| 2026-05-05 23:10 | 27.42743 | 48.58052 | 33802 ft | 451 kts | 291° |
| 2026-05-05 23:10 | 27.45796 | 48.51873 | 33826 ft | 451 kts | 291° |
| 2026-05-05 23:11 | 27.48837 | 48.45711 | 33809 ft | 450 kts | 291° |
| 2026-05-05 23:11 | 27.51872 | 48.39552 | 33812 ft | 450 kts | 290° |
| 2026-05-05 23:12 | 27.54909 | 48.33378 | 33814 ft | 450 kts | 290° |
| 2026-05-05 23:12 | 27.57936 | 48.27216 | 33820 ft | 450 kts | 291° |
| 2026-05-05 23:13 | 27.60973 | 48.21051 | 33823 ft | 448 kts | 290° |
| 2026-05-05 23:13 | 27.63983 | 48.14919 | 33824 ft | 447 kts | 290° |
| 2026-05-05 23:14 | 27.66995 | 48.08770 | 33828 ft | 447 kts | 290° |
| 2026-05-05 23:14 | 27.69999 | 48.02635 | 33835 ft | 447 kts | 290° |
| 2026-05-05 23:15 | 27.72982 | 47.96532 | 33842 ft | 445 kts | 290° |
| 2026-05-05 23:15 | 27.75955 | 47.90419 | 33837 ft | 444 kts | 290° |
| 2026-05-05 23:16 | 27.78923 | 47.84305 | 33839 ft | 444 kts | 290° |
| 2026-05-05 23:16 | 27.81895 | 47.78179 | 33836 ft | 444 kts | 290° |
| 2026-05-05 23:17 | 27.84609 | 47.71944 | 33846 ft | 436 kts | 283° |
| 2026-05-05 23:17 | 27.86698 | 47.65544 | 33847 ft | 433 kts | 282° |
| 2026-05-05 23:18 | 27.88688 | 47.59123 | 33851 ft | 433 kts | 282° |
| 2026-05-05 23:18 | 27.90654 | 47.52726 | 33859 ft | 433 kts | 282° |
| 2026-05-05 23:19 | 27.92648 | 47.46257 | 33859 ft | 433 kts | 282° |
| 2026-05-05 23:19 | 27.94635 | 47.39822 | 33862 ft | 433 kts | 282° |
| 2026-05-05 23:20 | 27.96616 | 47.33401 | 33862 ft | 432 kts | 282° |
| 2026-05-05 23:20 | 27.98586 | 47.26993 | 33870 ft | 432 kts | 282° |
| 2026-05-05 23:21 | 28.00556 | 47.20576 | 33873 ft | 432 kts | 282° |
| 2026-05-05 23:21 | 28.02529 | 47.14140 | 33873 ft | 432 kts | 282° |
| 2026-05-05 23:22 | 28.04491 | 47.07729 | 33875 ft | 431 kts | 281° |
| 2026-05-05 23:22 | 28.06451 | 47.01309 | 33892 ft | 430 kts | 281° |
| 2026-05-05 23:23 | 28.08398 | 46.94918 | 33885 ft | 430 kts | 281° |
| 2026-05-05 23:23 | 28.10349 | 46.88502 | 33884 ft | 430 kts | 281° |
| 2026-05-05 23:24 | 28.12388 | 46.82116 | 33893 ft | 432 kts | 283° |
| 2026-05-05 23:24 | 28.14548 | 46.75768 | 33891 ft | 432 kts | 283° |
| 2026-05-05 23:25 | 28.16685 | 46.69456 | 33890 ft | 431 kts | 283° |
| 2026-05-05 23:25 | 28.18802 | 46.63113 | 33893 ft | 431 kts | 283° |
| 2026-05-05 23:26 | 28.20914 | 46.56743 | 33898 ft | 431 kts | 283° |
| 2026-05-05 23:26 | 28.23023 | 46.50368 | 33896 ft | 432 kts | 282° |
| 2026-05-05 23:27 | 28.25134 | 46.43979 | 33905 ft | 432 kts | 282° |
| 2026-05-05 23:27 | 28.27237 | 46.37604 | 33911 ft | 432 kts | 282° |
| 2026-05-05 23:28 | 28.29347 | 46.31198 | 33910 ft | 433 kts | 282° |
| 2026-05-05 23:28 | 28.31455 | 46.24784 | 33912 ft | 434 kts | 282° |
| 2026-05-05 23:29 | 28.33560 | 46.18371 | 33919 ft | 434 kts | 282° |
| 2026-05-05 23:29 | 28.35665 | 46.11947 | 33913 ft | 434 kts | 282° |
| 2026-05-05 23:30 | 28.37506 | 46.06639 | 33910 ft | 437 kts | 284° |
| 2026-05-05 23:30 | 28.40338 | 45.99211 | 33915 ft | 438 kts | 285° |
| 2026-05-05 23:31 | 28.42747 | 45.92871 | 33931 ft | 438 kts | 284° |
| 2026-05-05 23:31 | 28.44734 | 45.87553 | 33921 ft | 438 kts | 284° |
| 2026-05-05 23:32 | 28.47095 | 45.81181 | 33922 ft | 438 kts | 284° |
| 2026-05-05 23:32 | 28.49453 | 45.74799 | 33924 ft | 438 kts | 284° |
| 2026-05-05 23:33 | 28.51814 | 45.68399 | 33925 ft | 438 kts | 284° |
| 2026-05-05 23:33 | 28.54164 | 45.62024 | 33929 ft | 438 kts | 284° |
| 2026-05-05 23:34 | 28.56518 | 45.55625 | 33928 ft | 438 kts | 284° |
| 2026-05-05 23:34 | 28.58871 | 45.49221 | 33924 ft | 438 kts | 284° |
| 2026-05-05 23:35 | 28.61215 | 45.42828 | 33930 ft | 438 kts | 284° |
| 2026-05-05 23:35 | 28.63559 | 45.36425 | 33931 ft | 438 kts | 284° |
| 2026-05-05 23:36 | 28.65898 | 45.30022 | 33935 ft | 438 kts | 284° |
| 2026-05-05 23:36 | 28.68235 | 45.23616 | 33932 ft | 438 kts | 284° |
| 2026-05-05 23:37 | 28.70568 | 45.17211 | 33941 ft | 438 kts | 284° |
| 2026-05-05 23:37 | 28.72902 | 45.10790 | 33954 ft | 438 kts | 284° |
| 2026-05-05 23:38 | 28.75232 | 45.04368 | 33943 ft | 438 kts | 284° |
| 2026-05-05 23:38 | 28.77561 | 44.97939 | 33957 ft | 439 kts | 284° |
| 2026-05-05 23:39 | 28.79878 | 44.91532 | 33950 ft | 438 kts | 284° |
| 2026-05-05 23:39 | 28.82191 | 44.85125 | 33948 ft | 438 kts | 284° |
| 2026-05-05 23:40 | 28.84508 | 44.78693 | 33949 ft | 438 kts | 284° |
| 2026-05-05 23:40 | 28.87358 | 44.72441 | 33954 ft | 451 kts | 294° |
| 2026-05-05 23:41 | 28.90900 | 44.66511 | 33956 ft | 454 kts | 295° |
| 2026-05-05 23:41 | 28.94559 | 44.60621 | 33968 ft | 454 kts | 296° |
| 2026-05-05 23:42 | 28.98190 | 44.54779 | 33952 ft | 453 kts | 295° |
| 2026-05-05 23:42 | 29.01824 | 44.48891 | 33952 ft | 453 kts | 295° |
| 2026-05-05 23:43 | 29.05467 | 44.42963 | 33957 ft | 453 kts | 295° |
| 2026-05-05 23:43 | 29.09056 | 44.37111 | 33957 ft | 453 kts | 295° |
| 2026-05-05 23:44 | 29.12666 | 44.31217 | 33957 ft | 453 kts | 295° |
| 2026-05-05 23:44 | 29.16303 | 44.25272 | 33958 ft | 452 kts | 295° |
| 2026-05-05 23:45 | 29.19879 | 44.19419 | 33965 ft | 452 kts | 295° |
| 2026-05-05 23:45 | 29.23484 | 44.13509 | 33963 ft | 452 kts | 295° |
| 2026-05-05 23:46 | 29.27089 | 44.07591 | 33967 ft | 452 kts | 295° |
| 2026-05-05 23:46 | 29.30688 | 44.01675 | 33968 ft | 453 kts | 295° |
| 2026-05-05 23:47 | 29.34282 | 43.95759 | 33965 ft | 452 kts | 295° |
| 2026-05-05 23:47 | 29.37867 | 43.89851 | 33966 ft | 452 kts | 295° |
| 2026-05-05 23:48 | 29.41453 | 43.83931 | 33963 ft | 452 kts | 295° |
| 2026-05-05 23:48 | 29.45041 | 43.78000 | 33963 ft | 451 kts | 295° |
| 2026-05-05 23:49 | 29.48613 | 43.72087 | 33963 ft | 451 kts | 295° |
| 2026-05-05 23:49 | 29.52188 | 43.66158 | 33963 ft | 451 kts | 295° |
| 2026-05-05 23:50 | 29.55751 | 43.60241 | 33969 ft | 450 kts | 295° |
| 2026-05-05 23:50 | 29.59308 | 43.54329 | 33965 ft | 450 kts | 295° |
| 2026-05-05 23:51 | 29.62861 | 43.48411 | 33965 ft | 449 kts | 295° |
| 2026-05-05 23:51 | 29.66270 | 43.42420 | 33988 ft | 447 kts | 294° |
| 2026-05-05 23:52 | 29.69597 | 43.36392 | 33965 ft | 447 kts | 294° |
| 2026-05-05 23:52 | 29.72945 | 43.30360 | 33966 ft | 447 kts | 294° |
| 2026-05-05 23:53 | 29.76319 | 43.24320 | 33965 ft | 448 kts | 294° |
| 2026-05-05 23:53 | 29.79679 | 43.18310 | 33971 ft | 449 kts | 294° |
| 2026-05-05 23:54 | 29.83064 | 43.12246 | 33972 ft | 449 kts | 294° |
| 2026-05-05 23:54 | 29.86440 | 43.06189 | 33972 ft | 449 kts | 294° |
| 2026-05-05 23:55 | 29.89811 | 43.00132 | 33973 ft | 450 kts | 294° |
| 2026-05-05 23:55 | 29.93171 | 42.94080 | 33970 ft | 452 kts | 294° |
| 2026-05-05 23:56 | 29.96581 | 42.87933 | 33976 ft | 452 kts | 294° |
| 2026-05-05 23:56 | 29.99948 | 42.81858 | 33974 ft | 452 kts | 294° |
| 2026-05-05 23:57 | 30.03333 | 42.75738 | 33975 ft | 452 kts | 294° |
| 2026-05-05 23:57 | 30.06709 | 42.69625 | 33979 ft | 452 kts | 294° |
| 2026-05-05 23:58 | 30.10092 | 42.63490 | 33978 ft | 452 kts | 293° |
| 2026-05-05 23:58 | 30.13465 | 42.57362 | 33981 ft | 453 kts | 293° |
| 2026-05-05 23:59 | 30.16848 | 42.51208 | 33982 ft | 453 kts | 293° |
| 2026-05-05 23:59 | 30.20220 | 42.45063 | 33983 ft | 453 kts | 293° |
| 2026-05-06 00:00 | 30.23585 | 42.38923 | 33992 ft | 453 kts | 293° |
| 2026-05-06 00:00 | 30.26956 | 42.32762 | 33991 ft | 453 kts | 293° |
| 2026-05-06 00:01 | 30.30327 | 42.26593 | 33990 ft | 453 kts | 293° |
| 2026-05-06 00:01 | 30.33675 | 42.20456 | 33990 ft | 453 kts | 293° |
| 2026-05-06 00:02 | 30.37039 | 42.14278 | 33994 ft | 454 kts | 293° |
| 2026-05-06 00:02 | 30.40399 | 42.08099 | 33996 ft | 454 kts | 293° |
| 2026-05-06 00:03 | 30.43759 | 42.01912 | 33999 ft | 454 kts | 293° |
| 2026-05-06 00:03 | 30.47120 | 41.95712 | 34000 ft | 453 kts | 293° |
| 2026-05-06 00:04 | 30.50465 | 41.89532 | 34004 ft | 453 kts | 293° |
| 2026-05-06 00:04 | 30.53813 | 41.83337 | 34000 ft | 453 kts | 293° |
| 2026-05-06 00:05 | 30.58832 | 41.74030 | 34006 ft | 453 kts | 293° |
| 2026-05-06 00:06 | 30.62161 | 41.67848 | 34007 ft | 452 kts | 293° |
| 2026-05-06 00:06 | 30.65496 | 41.61642 | 34006 ft | 452 kts | 293° |
| 2026-05-06 00:07 | 30.68820 | 41.55448 | 34031 ft | 452 kts | 293° |
| 2026-05-06 00:07 | 30.72121 | 41.49287 | 34013 ft | 452 kts | 293° |
| 2026-05-06 00:08 | 30.75456 | 41.43052 | 34018 ft | 451 kts | 293° |
| 2026-05-06 00:08 | 30.78770 | 41.36847 | 34017 ft | 451 kts | 293° |
| 2026-05-06 00:09 | 30.82078 | 41.30643 | 34015 ft | 451 kts | 293° |
| 2026-05-06 00:09 | 30.85360 | 41.24478 | 34017 ft | 451 kts | 293° |
| 2026-05-06 00:10 | 30.88684 | 41.18226 | 34032 ft | 451 kts | 293° |
| 2026-05-06 00:10 | 30.91972 | 41.11987 | 34034 ft | 450 kts | 291° |
| 2026-05-06 00:11 | 30.94932 | 41.05640 | 34023 ft | 446 kts | 289° |
| 2026-05-06 00:11 | 30.97796 | 40.99215 | 34023 ft | 446 kts | 289° |
| 2026-05-06 00:12 | 31.00672 | 40.92862 | 34024 ft | 447 kts | 289° |
| 2026-05-06 00:12 | 31.03130 | 40.87503 | 34026 ft | 447 kts | 290° |
| 2026-05-06 00:13 | 31.06536 | 40.80099 | 34024 ft | 447 kts | 290° |
| 2026-05-06 00:13 | 31.09466 | 40.73715 | 34028 ft | 446 kts | 290° |
| 2026-05-06 00:14 | 31.12395 | 40.67318 | 34029 ft | 446 kts | 290° |
| 2026-05-06 00:14 | 31.15317 | 40.60923 | 34029 ft | 446 kts | 290° |
| 2026-05-06 00:15 | 31.18237 | 40.54523 | 34028 ft | 446 kts | 290° |
| 2026-05-06 00:15 | 31.21154 | 40.48117 | 34029 ft | 447 kts | 290° |
| 2026-05-06 00:16 | 31.24051 | 40.41745 | 34031 ft | 446 kts | 290° |
| 2026-05-06 00:16 | 31.26965 | 40.35326 | 34036 ft | 446 kts | 290° |
| 2026-05-06 00:17 | 31.29871 | 40.28911 | 34037 ft | 446 kts | 290° |
| 2026-05-06 00:17 | 31.32279 | 40.23587 | 34052 ft | 446 kts | 290° |
| 2026-05-06 00:18 | 31.35177 | 40.17173 | 34038 ft | 446 kts | 290° |
| 2026-05-06 00:18 | 31.38067 | 40.10763 | 34039 ft | 445 kts | 290° |
| 2026-05-06 00:19 | 31.41428 | 40.03296 | 34033 ft | 445 kts | 290° |
| 2026-05-06 00:19 | 31.43842 | 39.97921 | 34042 ft | 445 kts | 290° |
| 2026-05-06 00:20 | 31.46720 | 39.91506 | 34038 ft | 445 kts | 290° |
| 2026-05-06 00:20 | 31.49594 | 39.85088 | 34039 ft | 445 kts | 290° |
| 2026-05-06 00:21 | 31.52470 | 39.78656 | 34045 ft | 445 kts | 290° |
| 2026-05-06 00:21 | 31.55343 | 39.72216 | 34045 ft | 446 kts | 290° |
| 2026-05-06 00:22 | 31.58211 | 39.65778 | 34045 ft | 446 kts | 290° |
| 2026-05-06 00:22 | 31.61080 | 39.59328 | 34045 ft | 446 kts | 289° |
| 2026-05-06 00:23 | 31.63942 | 39.52882 | 34043 ft | 446 kts | 289° |
| 2026-05-06 00:23 | 31.66805 | 39.46422 | 34048 ft | 446 kts | 289° |
| 2026-05-06 00:24 | 31.69662 | 39.39963 | 34051 ft | 446 kts | 289° |
| 2026-05-06 00:24 | 31.72516 | 39.33502 | 34055 ft | 446 kts | 289° |
| 2026-05-06 00:25 | 31.75344 | 39.27086 | 34050 ft | 446 kts | 289° |
| 2026-05-06 00:25 | 31.78440 | 39.20655 | 34050 ft | 455 kts | 297° |
| 2026-05-06 00:26 | 31.82895 | 39.15187 | 34053 ft | 476 kts | 314° |
| 2026-05-06 00:26 | 31.85678 | 39.13080 | 34053 ft | 487 kts | 321° |
| 2026-05-06 00:26 | 31.88683 | 39.11189 | 34058 ft | 491 kts | 323° |
| 2026-05-06 00:27 | 31.94812 | 39.07597 | 34050 ft | 492 kts | 324° |
| 2026-05-06 00:27 | 32.00953 | 39.04046 | 34047 ft | 492 kts | 324° |
| 2026-05-06 00:28 | 32.07079 | 39.00459 | 34049 ft | 491 kts | 324° |
| 2026-05-06 00:28 | 32.13193 | 38.96859 | 34051 ft | 491 kts | 323° |
| 2026-05-06 00:29 | 32.19288 | 38.93258 | 34050 ft | 490 kts | 323° |
| 2026-05-06 00:29 | 32.25351 | 38.89669 | 34054 ft | 491 kts | 323° |
| 2026-05-06 00:30 | 32.31489 | 38.86034 | 34049 ft | 489 kts | 323° |
| 2026-05-06 00:30 | 32.37557 | 38.82434 | 34071 ft | 488 kts | 323° |
| 2026-05-06 00:31 | 32.43624 | 38.78829 | 34056 ft | 488 kts | 323° |
| 2026-05-06 00:31 | 32.49682 | 38.75222 | 34053 ft | 488 kts | 323° |
| 2026-05-06 00:32 | 32.55738 | 38.71650 | 34048 ft | 491 kts | 326° |
| 2026-05-06 00:32 | 32.58973 | 38.70226 | 34053 ft | 503 kts | 335° |
| 2026-05-06 00:32 | 32.62477 | 38.69379 | 34097 ft | 516 kts | 345° |
| 2026-05-06 00:33 | 32.69654 | 38.68804 | 34062 ft | 522 kts | 349° |
| 2026-05-06 00:33 | 32.76918 | 38.68518 | 34061 ft | 523 kts | 349° |
| 2026-05-06 00:34 | 32.84172 | 38.68241 | 34067 ft | 522 kts | 349° |
| 2026-05-06 00:34 | 32.91418 | 38.67927 | 34052 ft | 520 kts | 349° |
| 2026-05-06 00:35 | 32.98668 | 38.67593 | 34053 ft | 520 kts | 349° |
| 2026-05-06 00:35 | 33.05887 | 38.67259 | 34097 ft | 520 kts | 349° |
| 2026-05-06 00:36 | 33.13128 | 38.66917 | 34053 ft | 519 kts | 349° |
| 2026-05-06 00:36 | 33.20334 | 38.66569 | 34053 ft | 519 kts | 349° |
| 2026-05-06 00:37 | 33.27559 | 38.66223 | 34071 ft | 520 kts | 349° |
| 2026-05-06 00:37 | 33.34788 | 38.65885 | 34056 ft | 520 kts | 349° |
| 2026-05-06 00:38 | 33.42009 | 38.65617 | 34056 ft | 520 kts | 350° |
| 2026-05-06 00:38 | 33.49081 | 38.64629 | 34068 ft | 500 kts | 335° |
| 2026-05-06 00:39 | 33.55489 | 38.61878 | 34056 ft | 490 kts | 328° |
| 2026-05-06 00:39 | 33.61791 | 38.58667 | 34056 ft | 489 kts | 327° |
| 2026-05-06 00:40 | 33.68034 | 38.55426 | 34053 ft | 489 kts | 327° |
| 2026-05-06 00:40 | 33.74301 | 38.52213 | 34060 ft | 489 kts | 328° |
| 2026-05-06 00:41 | 33.80568 | 38.49022 | 34051 ft | 489 kts | 328° |
| 2026-05-06 00:41 | 33.86831 | 38.45836 | 34051 ft | 489 kts | 328° |
| 2026-05-06 00:42 | 33.93101 | 38.42639 | 34060 ft | 489 kts | 328° |
| 2026-05-06 00:42 | 33.99369 | 38.39436 | 34060 ft | 489 kts | 328° |
| 2026-05-06 00:43 | 34.05622 | 38.36235 | 34040 ft | 489 kts | 328° |
| 2026-05-06 00:43 | 34.11888 | 38.33023 | 34042 ft | 489 kts | 328° |
| 2026-05-06 00:44 | 34.18116 | 38.29825 | 34050 ft | 489 kts | 328° |
| 2026-05-06 00:44 | 34.24418 | 38.26584 | 34067 ft | 489 kts | 328° |
| 2026-05-06 00:45 | 34.30621 | 38.23389 | 34042 ft | 488 kts | 328° |
| 2026-05-06 00:45 | 34.36880 | 38.20160 | 34039 ft | 488 kts | 328° |
| 2026-05-06 00:46 | 34.43123 | 38.16934 | 34045 ft | 487 kts | 328° |
| 2026-05-06 00:46 | 34.49354 | 38.13708 | 34063 ft | 487 kts | 328° |
| 2026-05-06 00:47 | 34.55571 | 38.10460 | 34030 ft | 485 kts | 328° |
| 2026-05-06 00:47 | 34.61715 | 38.07117 | 34028 ft | 484 kts | 327° |
| 2026-05-06 00:48 | 34.67869 | 38.03743 | 34031 ft | 484 kts | 327° |
| 2026-05-06 00:48 | 34.74002 | 38.00398 | 34055 ft | 484 kts | 328° |
| 2026-05-06 00:49 | 34.80166 | 37.97042 | 34030 ft | 484 kts | 328° |
| 2026-05-06 00:49 | 34.86302 | 37.93698 | 34029 ft | 484 kts | 328° |
| 2026-05-06 00:50 | 34.92464 | 37.90332 | 34025 ft | 485 kts | 328° |
| 2026-05-06 00:50 | 34.98612 | 37.86969 | 34027 ft | 485 kts | 328° |
| 2026-05-06 00:51 | 35.04780 | 37.83590 | 34023 ft | 486 kts | 328° |
| 2026-05-06 00:51 | 35.10936 | 37.80212 | 34023 ft | 486 kts | 328° |
| 2026-05-06 00:52 | 35.17098 | 37.76826 | 34022 ft | 486 kts | 328° |
| 2026-05-06 00:52 | 35.23270 | 37.73428 | 34020 ft | 486 kts | 328° |
| 2026-05-06 00:53 | 35.29390 | 37.70054 | 34017 ft | 484 kts | 329° |
| 2026-05-06 00:53 | 35.35553 | 37.66652 | 34013 ft | 482 kts | 329° |
| 2026-05-06 00:54 | 35.41617 | 37.63294 | 34016 ft | 482 kts | 328° |
| 2026-05-06 00:54 | 35.47718 | 37.59911 | 34009 ft | 482 kts | 328° |
| 2026-05-06 00:55 | 35.53876 | 37.56491 | 34011 ft | 482 kts | 329° |
| 2026-05-06 00:55 | 35.59940 | 37.53119 | 34004 ft | 482 kts | 329° |
| 2026-05-06 00:56 | 35.66049 | 37.49716 | 34001 ft | 482 kts | 329° |
| 2026-05-06 00:56 | 35.72203 | 37.46282 | 34002 ft | 482 kts | 329° |
| 2026-05-06 00:57 | 35.78268 | 37.42892 | 34000 ft | 481 kts | 329° |
| 2026-05-06 00:57 | 35.84356 | 37.39484 | 33998 ft | 481 kts | 329° |
| 2026-05-06 00:58 | 35.90455 | 37.36063 | 33995 ft | 481 kts | 329° |
| 2026-05-06 00:58 | 35.96544 | 37.32645 | 33995 ft | 481 kts | 329° |
| 2026-05-06 00:59 | 36.02653 | 37.29296 | 33997 ft | 481 kts | 330° |
| 2026-05-06 00:59 | 36.08786 | 37.25966 | 33995 ft | 480 kts | 330° |
| 2026-05-06 01:00 | 36.14883 | 37.22638 | 33995 ft | 480 kts | 330° |
| 2026-05-06 01:00 | 36.20554 | 37.18500 | 33994 ft | 469 kts | 319° |
| 2026-05-06 01:01 | 36.25819 | 37.13735 | 34030 ft | 468 kts | 318° |
| 2026-05-06 01:01 | 36.31018 | 37.08875 | 33983 ft | 469 kts | 317° |
| 2026-05-06 01:02 | 36.36229 | 37.03994 | 33980 ft | 469 kts | 318° |
| 2026-05-06 01:02 | 36.41455 | 36.99113 | 33999 ft | 469 kts | 318° |
| 2026-05-06 01:03 | 36.46648 | 36.94229 | 33977 ft | 469 kts | 318° |
| 2026-05-06 01:03 | 36.50975 | 36.90148 | 33976 ft | 469 kts | 318° |
| 2026-05-06 01:04 | 36.56161 | 36.85254 | 33977 ft | 469 kts | 318° |
| 2026-05-06 01:04 | 36.61356 | 36.80348 | 33996 ft | 469 kts | 318° |
| 2026-05-06 01:05 | 36.66549 | 36.75437 | 33977 ft | 469 kts | 318° |
| 2026-05-06 01:05 | 36.71750 | 36.70508 | 33984 ft | 469 kts | 318° |
| 2026-05-06 01:06 | 36.76932 | 36.65591 | 33979 ft | 469 kts | 318° |
| 2026-05-06 01:06 | 36.82116 | 36.60644 | 33985 ft | 469 kts | 317° |
| 2026-05-06 01:07 | 36.88039 | 36.54882 | 34000 ft | 468 kts | 317° |
| 2026-05-06 01:07 | 36.93133 | 36.49914 | 34002 ft | 468 kts | 318° |
| 2026-05-06 01:08 | 36.98278 | 36.44916 | 33996 ft | 467 kts | 318° |
| 2026-05-06 01:08 | 37.03401 | 36.39940 | 33995 ft | 466 kts | 318° |
| 2026-05-06 01:09 | 37.08489 | 36.34988 | 33991 ft | 466 kts | 318° |
| 2026-05-06 01:09 | 37.12737 | 36.30843 | 33994 ft | 466 kts | 318° |
| 2026-05-06 01:10 | 37.17848 | 36.25854 | 33997 ft | 466 kts | 318° |
| 2026-05-06 01:10 | 37.22954 | 36.20862 | 33997 ft | 465 kts | 318° |
| 2026-05-06 01:11 | 37.28014 | 36.15907 | 33995 ft | 465 kts | 318° |
| 2026-05-06 01:11 | 37.33105 | 36.10910 | 33993 ft | 465 kts | 318° |
| 2026-05-06 01:12 | 37.38197 | 36.05903 | 33993 ft | 465 kts | 318° |
| 2026-05-06 01:12 | 37.43277 | 36.00900 | 33999 ft | 465 kts | 318° |
| 2026-05-06 01:13 | 37.48374 | 35.95872 | 34003 ft | 463 kts | 318° |
| 2026-05-06 01:13 | 37.53427 | 35.90878 | 34006 ft | 462 kts | 318° |
| 2026-05-06 01:14 | 37.61024 | 35.83353 | 34005 ft | 462 kts | 318° |
| 2026-05-06 01:14 | 37.66085 | 35.78329 | 34006 ft | 462 kts | 318° |
| 2026-05-06 01:15 | 37.71132 | 35.73310 | 34017 ft | 462 kts | 318° |
| 2026-05-06 01:15 | 37.76181 | 35.68278 | 34019 ft | 462 kts | 318° |
| 2026-05-06 01:16 | 37.81239 | 35.63229 | 34014 ft | 464 kts | 318° |
| 2026-05-06 01:16 | 37.86308 | 35.58163 | 34016 ft | 464 kts | 318° |
| 2026-05-06 01:17 | 37.91371 | 35.53091 | 34015 ft | 464 kts | 318° |
| 2026-05-06 01:17 | 37.96437 | 35.48006 | 34021 ft | 464 kts | 319° |
| 2026-05-06 01:18 | 38.01495 | 35.42922 | 34017 ft | 464 kts | 319° |
| 2026-05-06 01:18 | 38.06553 | 35.37826 | 34006 ft | 463 kts | 319° |
| 2026-05-06 01:19 | 38.11591 | 35.32743 | 34033 ft | 462 kts | 319° |
| 2026-05-06 01:19 | 38.16611 | 35.27669 | 34012 ft | 462 kts | 319° |
| 2026-05-06 01:20 | 38.21646 | 35.22570 | 34022 ft | 462 kts | 319° |
| 2026-05-06 01:20 | 38.26625 | 35.17520 | 34020 ft | 461 kts | 319° |
| 2026-05-06 01:21 | 38.31645 | 35.12417 | 34025 ft | 461 kts | 319° |
| 2026-05-06 01:21 | 38.36657 | 35.07315 | 34030 ft | 461 kts | 319° |
| 2026-05-06 01:22 | 38.41664 | 35.02211 | 34028 ft | 462 kts | 319° |
| 2026-05-06 01:22 | 38.46685 | 34.97109 | 34032 ft | 461 kts | 320° |
| 2026-05-06 01:23 | 38.51695 | 34.92007 | 34032 ft | 460 kts | 320° |
| 2026-05-06 01:23 | 38.56681 | 34.86918 | 34028 ft | 459 kts | 319° |
| 2026-05-06 01:24 | 38.61672 | 34.81811 | 34028 ft | 459 kts | 319° |
| 2026-05-06 01:24 | 38.66663 | 34.76694 | 34030 ft | 460 kts | 320° |
| 2026-05-06 01:25 | 38.71646 | 34.71576 | 34031 ft | 460 kts | 320° |
| 2026-05-06 01:25 | 38.76642 | 34.66436 | 34047 ft | 460 kts | 320° |
| 2026-05-06 01:26 | 38.81628 | 34.61297 | 34048 ft | 460 kts | 320° |
| 2026-05-06 01:26 | 38.86582 | 34.56181 | 34046 ft | 460 kts | 320° |
| 2026-05-06 01:27 | 38.91571 | 34.51021 | 34045 ft | 460 kts | 320° |
| 2026-05-06 01:27 | 38.96560 | 34.45848 | 34040 ft | 462 kts | 320° |
| 2026-05-06 01:28 | 39.01548 | 34.40669 | 34037 ft | 462 kts | 320° |
| 2026-05-06 01:28 | 39.06555 | 34.35461 | 34035 ft | 462 kts | 320° |
| 2026-05-06 01:29 | 39.11538 | 34.30236 | 34030 ft | 462 kts | 318° |
| 2026-05-06 01:29 | 39.15955 | 34.24239 | 34029 ft | 461 kts | 310° |
| 2026-05-06 01:30 | 39.20103 | 34.17932 | 34029 ft | 461 kts | 310° |
| 2026-05-06 01:30 | 39.24202 | 34.11574 | 34030 ft | 461 kts | 310° |
| 2026-05-06 01:31 | 39.28310 | 34.05198 | 34030 ft | 462 kts | 310° |
| 2026-05-06 01:31 | 39.32407 | 33.98848 | 34016 ft | 463 kts | 310° |
| 2026-05-06 01:32 | 39.36562 | 33.92403 | 34289 ft | 463 kts | 310° |
| 2026-05-06 01:32 | 39.38612 | 33.89217 | 34488 ft | 462 kts | 310° |
| 2026-05-06 01:32 | 39.40669 | 33.86020 | 34638 ft | 462 kts | 310° |
| 2026-05-06 01:33 | 39.42696 | 33.82864 | 34777 ft | 463 kts | 310° |
| 2026-05-06 01:33 | 39.44750 | 33.79665 | 34927 ft | 463 kts | 310° |
| 2026-05-06 01:33 | 39.46808 | 33.76453 | 35077 ft | 463 kts | 310° |
| 2026-05-06 01:33 | 39.48841 | 33.73227 | 35215 ft | 463 kts | 309° |
| 2026-05-06 01:34 | 39.50863 | 33.69966 | 35349 ft | 464 kts | 309° |
| 2026-05-06 01:34 | 39.52870 | 33.66705 | 35483 ft | 464 kts | 309° |
| 2026-05-06 01:34 | 39.54851 | 33.63485 | 35654 ft | 463 kts | 309° |
| 2026-05-06 01:34 | 39.56890 | 33.60174 | 35764 ft | 463 kts | 309° |
| 2026-05-06 01:35 | 39.58866 | 33.56978 | 35878 ft | 463 kts | 310° |
| 2026-05-06 01:35 | 39.60932 | 33.53711 | 35993 ft | 464 kts | 310° |
| 2026-05-06 01:35 | 39.65066 | 33.47281 | 36015 ft | 464 kts | 310° |
| 2026-05-06 01:36 | 39.69219 | 33.40817 | 36015 ft | 464 kts | 310° |
| 2026-05-06 01:36 | 39.73338 | 33.34364 | 36016 ft | 464 kts | 310° |
| 2026-05-06 01:37 | 39.77452 | 33.27893 | 36014 ft | 464 kts | 310° |
| 2026-05-06 01:37 | 39.81562 | 33.21412 | 36017 ft | 464 kts | 310° |
| 2026-05-06 01:38 | 39.85668 | 33.14924 | 36018 ft | 464 kts | 310° |
| 2026-05-06 01:38 | 39.89760 | 33.08445 | 36019 ft | 464 kts | 310° |
| 2026-05-06 01:39 | 39.93859 | 33.01944 | 36021 ft | 463 kts | 310° |
| 2026-05-06 01:39 | 39.97946 | 32.95448 | 36022 ft | 463 kts | 310° |
| 2026-05-06 01:40 | 40.01986 | 32.89013 | 36028 ft | 464 kts | 310° |
| 2026-05-06 01:40 | 40.06070 | 32.82493 | 36029 ft | 463 kts | 311° |
| 2026-05-06 01:41 | 40.10035 | 32.75806 | 36032 ft | 464 kts | 307° |
| 2026-05-06 01:41 | 40.13626 | 32.68857 | 36031 ft | 464 kts | 305° |
| 2026-05-06 01:42 | 40.17244 | 32.61797 | 36039 ft | 464 kts | 306° |
| 2026-05-06 01:42 | 40.20859 | 32.54885 | 36046 ft | 464 kts | 307° |
| 2026-05-06 01:43 | 40.24550 | 32.47892 | 36044 ft | 464 kts | 307° |
| 2026-05-06 01:43 | 40.28193 | 32.40988 | 36035 ft | 464 kts | 307° |
| 2026-05-06 01:44 | 40.31863 | 32.34011 | 36061 ft | 464 kts | 307° |
| 2026-05-06 01:44 | 40.35523 | 32.27034 | 36044 ft | 465 kts | 307° |
| 2026-05-06 01:45 | 40.39178 | 32.20048 | 36056 ft | 465 kts | 307° |
| 2026-05-06 01:45 | 40.42837 | 32.13045 | 36057 ft | 465 kts | 307° |
| 2026-05-06 01:46 | 40.46478 | 32.06043 | 36060 ft | 465 kts | 306° |
| 2026-05-06 01:46 | 40.50109 | 31.99022 | 36069 ft | 465 kts | 307° |
| 2026-05-06 01:47 | 40.53738 | 31.91995 | 36062 ft | 465 kts | 307° |
| 2026-05-06 01:47 | 40.57283 | 31.84890 | 36059 ft | 466 kts | 301° |
| 2026-05-06 01:48 | 40.59807 | 31.76981 | 36055 ft | 470 kts | 292° |
| 2026-05-06 01:48 | 40.61878 | 31.68814 | 36057 ft | 472 kts | 291° |
| 2026-05-06 01:49 | 40.63879 | 31.60585 | 36062 ft | 472 kts | 291° |
| 2026-05-06 01:49 | 40.65754 | 31.52876 | 36062 ft | 472 kts | 291° |
| 2026-05-06 01:50 | 40.67769 | 31.44638 | 36069 ft | 472 kts | 291° |
| 2026-05-06 01:50 | 40.69783 | 31.36401 | 36066 ft | 472 kts | 291° |
| 2026-05-06 01:51 | 40.71791 | 31.28164 | 36070 ft | 472 kts | 291° |
| 2026-05-06 01:51 | 40.73787 | 31.19945 | 36072 ft | 472 kts | 291° |
| 2026-05-06 01:52 | 40.75783 | 31.11700 | 36057 ft | 472 kts | 291° |
| 2026-05-06 01:52 | 40.77769 | 31.03456 | 36069 ft | 471 kts | 291° |
| 2026-05-06 01:53 | 40.79752 | 30.95197 | 36067 ft | 471 kts | 291° |
| 2026-05-06 01:53 | 40.81726 | 30.86949 | 36065 ft | 471 kts | 291° |
| 2026-05-06 01:54 | 40.83695 | 30.78692 | 36069 ft | 471 kts | 291° |
| 2026-05-06 01:54 | 40.85657 | 30.70434 | 36067 ft | 471 kts | 291° |
| 2026-05-06 01:55 | 40.87550 | 30.62146 | 36065 ft | 473 kts | 288° |
| 2026-05-06 01:55 | 40.89036 | 30.53673 | 36064 ft | 474 kts | 285° |
| 2026-05-06 01:56 | 40.90443 | 30.45164 | 36064 ft | 474 kts | 286° |
| 2026-05-06 01:56 | 40.91895 | 30.36717 | 36065 ft | 474 kts | 286° |
| 2026-05-06 01:57 | 40.93402 | 30.28181 | 36065 ft | 473 kts | 286° |
| 2026-05-06 01:57 | 40.94895 | 30.19694 | 36055 ft | 473 kts | 286° |
| 2026-05-06 01:58 | 40.96376 | 30.11228 | 36065 ft | 473 kts | 286° |
| 2026-05-06 01:58 | 40.97855 | 30.02724 | 36067 ft | 473 kts | 286° |
| 2026-05-06 01:59 | 40.99317 | 29.94294 | 36067 ft | 473 kts | 286° |
| 2026-05-06 01:59 | 41.00762 | 29.85796 | 36068 ft | 474 kts | 285° |
| 2026-05-06 02:00 | 41.02195 | 29.77277 | 36071 ft | 474 kts | 285° |
| 2026-05-06 02:00 | 41.03626 | 29.68753 | 36072 ft | 474 kts | 285° |
| 2026-05-06 02:01 | 41.05056 | 29.60237 | 36071 ft | 474 kts | 285° |
| 2026-05-06 02:01 | 41.06491 | 29.51716 | 36069 ft | 475 kts | 285° |
| 2026-05-06 02:02 | 41.07928 | 29.43131 | 36073 ft | 476 kts | 285° |
| 2026-05-06 02:02 | 41.09358 | 29.34549 | 36076 ft | 476 kts | 285° |
| 2026-05-06 02:03 | 41.10780 | 29.25969 | 36074 ft | 476 kts | 285° |
| 2026-05-06 02:03 | 41.12296 | 29.17461 | 36086 ft | 473 kts | 290° |
| 2026-05-06 02:04 | 41.15081 | 29.09641 | 36058 ft | 468 kts | 303° |
| 2026-05-06 02:04 | 41.18604 | 29.02372 | 36048 ft | 468 kts | 305° |
| 2026-05-06 02:05 | 41.22241 | 28.95176 | 36054 ft | 468 kts | 305° |
| 2026-05-06 02:05 | 41.25837 | 28.88038 | 36051 ft | 468 kts | 305° |
| 2026-05-06 02:06 | 41.29444 | 28.80810 | 36051 ft | 468 kts | 305° |
| 2026-05-06 02:06 | 41.33039 | 28.73569 | 36047 ft | 469 kts | 305° |
| 2026-05-06 02:07 | 41.36623 | 28.66329 | 36046 ft | 469 kts | 304° |
| 2026-05-06 02:07 | 41.40209 | 28.59071 | 36046 ft | 469 kts | 304° |
| 2026-05-06 02:08 | 41.43789 | 28.51807 | 36048 ft | 469 kts | 304° |
| 2026-05-06 02:08 | 41.47363 | 28.44539 | 36047 ft | 468 kts | 304° |
| 2026-05-06 02:09 | 41.51420 | 28.37840 | 36055 ft | 464 kts | 315° |
| 2026-05-06 02:09 | 41.55977 | 28.31692 | 36053 ft | 465 kts | 316° |
| 2026-05-06 02:10 | 41.60611 | 28.25618 | 36049 ft | 467 kts | 316° |
| 2026-05-06 02:10 | 41.65231 | 28.19554 | 36050 ft | 464 kts | 316° |
| 2026-05-06 02:11 | 41.69813 | 28.13504 | 36048 ft | 463 kts | 316° |
| 2026-05-06 02:11 | 41.73629 | 28.08446 | 36048 ft | 463 kts | 316° |
| 2026-05-06 02:12 | 41.78200 | 28.02374 | 36048 ft | 463 kts | 316° |
| 2026-05-06 02:12 | 41.83525 | 27.95284 | 36048 ft | 463 kts | 316° |
| 2026-05-06 02:13 | 41.88097 | 27.89184 | 36048 ft | 465 kts | 316° |
| 2026-05-06 02:13 | 41.91938 | 27.84049 | 36046 ft | 466 kts | 316° |
| 2026-05-06 02:14 | 41.96521 | 27.77909 | 36046 ft | 463 kts | 316° |
| 2026-05-06 02:14 | 42.01057 | 27.71771 | 36049 ft | 463 kts | 315° |
| 2026-05-06 02:15 | 42.05556 | 27.65586 | 36047 ft | 463 kts | 315° |
| 2026-05-06 02:15 | 42.10060 | 27.59384 | 36042 ft | 462 kts | 316° |
| 2026-05-06 02:16 | 42.14541 | 27.53216 | 36052 ft | 461 kts | 315° |
| 2026-05-06 02:16 | 42.19002 | 27.47072 | 36045 ft | 462 kts | 315° |
| 2026-05-06 02:17 | 42.23515 | 27.40843 | 36046 ft | 462 kts | 315° |
| 2026-05-06 02:17 | 42.27970 | 27.34678 | 36043 ft | 461 kts | 315° |
| 2026-05-06 02:18 | 42.32437 | 27.28483 | 36044 ft | 460 kts | 315° |
| 2026-05-06 02:18 | 42.36899 | 27.22282 | 36044 ft | 460 kts | 315° |
| 2026-05-06 02:19 | 42.41386 | 27.16034 | 36034 ft | 460 kts | 315° |
| 2026-05-06 02:19 | 42.45809 | 27.09861 | 36047 ft | 459 kts | 315° |
| 2026-05-06 02:20 | 42.52509 | 27.00485 | 36047 ft | 460 kts | 315° |
| 2026-05-06 02:21 | 42.56954 | 26.94246 | 36035 ft | 460 kts | 315° |
| 2026-05-06 02:21 | 42.61382 | 26.88017 | 36047 ft | 459 kts | 315° |
| 2026-05-06 02:22 | 42.65788 | 26.81808 | 36044 ft | 459 kts | 315° |
| 2026-05-06 02:22 | 42.70215 | 26.75554 | 36059 ft | 459 kts | 315° |
| 2026-05-06 02:23 | 42.74639 | 26.69292 | 36055 ft | 459 kts | 315° |
| 2026-05-06 02:23 | 42.79051 | 26.63024 | 36047 ft | 459 kts | 315° |
| 2026-05-06 02:24 | 42.82807 | 26.55973 | 36048 ft | 462 kts | 302° |
| 2026-05-06 02:24 | 42.85908 | 26.48290 | 36044 ft | 463 kts | 300° |
| 2026-05-06 02:25 | 42.88895 | 26.40517 | 36045 ft | 463 kts | 300° |
| 2026-05-06 02:25 | 42.91868 | 26.32744 | 36039 ft | 462 kts | 300° |
| 2026-05-06 02:26 | 42.94845 | 26.24984 | 36034 ft | 462 kts | 300° |
| 2026-05-06 02:26 | 42.97832 | 26.17202 | 36033 ft | 462 kts | 300° |
| 2026-05-06 02:27 | 43.00804 | 26.09439 | 36028 ft | 461 kts | 300° |
| 2026-05-06 02:27 | 43.03767 | 26.01679 | 36024 ft | 460 kts | 300° |
| 2026-05-06 02:28 | 43.06718 | 25.93928 | 36019 ft | 460 kts | 300° |
| 2026-05-06 02:28 | 43.09668 | 25.86156 | 36008 ft | 460 kts | 300° |
| 2026-05-06 02:29 | 43.12613 | 25.78379 | 36022 ft | 460 kts | 300° |
| 2026-05-06 02:29 | 43.15701 | 25.70710 | 36020 ft | 458 kts | 306° |
| 2026-05-06 02:30 | 43.19352 | 25.63588 | 36020 ft | 457 kts | 308° |
| 2026-05-06 02:30 | 43.23102 | 25.56524 | 36019 ft | 457 kts | 308° |
| 2026-05-06 02:31 | 43.26853 | 25.49484 | 36017 ft | 458 kts | 308° |
| 2026-05-06 02:31 | 43.30601 | 25.42414 | 36010 ft | 458 kts | 308° |
| 2026-05-06 02:32 | 43.34336 | 25.35337 | 36006 ft | 458 kts | 308° |
| 2026-05-06 02:32 | 43.38077 | 25.28227 | 35998 ft | 459 kts | 308° |
| 2026-05-06 02:33 | 43.41785 | 25.21164 | 35996 ft | 459 kts | 308° |
| 2026-05-06 02:33 | 43.43052 | 25.18746 | 35996 ft | 459 kts | 308° |
| 2026-05-06 02:34 | 43.49248 | 25.06897 | 35987 ft | 459 kts | 307° |
| 2026-05-06 02:34 | 43.52997 | 24.99706 | 36008 ft | 459 kts | 307° |
| 2026-05-06 02:35 | 43.56692 | 24.92599 | 35988 ft | 460 kts | 307° |
| 2026-05-06 02:35 | 43.60414 | 24.85424 | 35998 ft | 460 kts | 307° |
| 2026-05-06 02:36 | 43.64141 | 24.78221 | 36005 ft | 460 kts | 307° |
| 2026-05-06 02:36 | 43.67848 | 24.71039 | 35985 ft | 460 kts | 307° |
| 2026-05-06 02:37 | 43.71562 | 24.63827 | 35983 ft | 460 kts | 307° |
| 2026-05-06 02:37 | 43.75270 | 24.56607 | 36000 ft | 460 kts | 307° |
| 2026-05-06 02:38 | 43.79034 | 24.49463 | 35998 ft | 460 kts | 308° |
| 2026-05-06 02:38 | 43.82890 | 24.42411 | 35989 ft | 459 kts | 308° |
| 2026-05-06 02:39 | 43.86736 | 24.35350 | 35993 ft | 459 kts | 308° |
| 2026-05-06 02:39 | 43.90562 | 24.28260 | 35994 ft | 459 kts | 308° |
| 2026-05-06 02:40 | 43.94365 | 24.21173 | 35994 ft | 459 kts | 308° |
| 2026-05-06 02:40 | 43.98181 | 24.14045 | 35994 ft | 460 kts | 307° |
| 2026-05-06 02:41 | 44.01972 | 24.06945 | 35993 ft | 460 kts | 307° |
| 2026-05-06 02:41 | 44.05794 | 23.99770 | 35994 ft | 460 kts | 307° |
| 2026-05-06 02:42 | 44.09582 | 23.92645 | 35995 ft | 460 kts | 307° |
| 2026-05-06 02:42 | 44.13377 | 23.85486 | 35994 ft | 460 kts | 307° |
| 2026-05-06 02:43 | 44.17170 | 23.78316 | 35987 ft | 460 kts | 307° |
| 2026-05-06 02:43 | 44.20947 | 23.71156 | 35996 ft | 460 kts | 307° |
| 2026-05-06 02:44 | 44.24736 | 23.63957 | 35991 ft | 460 kts | 307° |
| 2026-05-06 02:44 | 44.28519 | 23.56751 | 35992 ft | 460 kts | 307° |
| 2026-05-06 02:45 | 44.32298 | 23.49535 | 36000 ft | 460 kts | 307° |
| 2026-05-06 02:45 | 44.36073 | 23.42309 | 35981 ft | 460 kts | 307° |
| 2026-05-06 02:46 | 44.39838 | 23.35083 | 35995 ft | 460 kts | 307° |
| 2026-05-06 02:46 | 44.43613 | 23.27820 | 35994 ft | 460 kts | 307° |
| 2026-05-06 02:47 | 44.47369 | 23.20576 | 35992 ft | 460 kts | 306° |
| 2026-05-06 02:47 | 44.51124 | 23.13316 | 35991 ft | 460 kts | 306° |
| 2026-05-06 02:48 | 44.54840 | 23.06113 | 35996 ft | 458 kts | 306° |
| 2026-05-06 02:48 | 44.58559 | 22.98885 | 36049 ft | 458 kts | 306° |
| 2026-05-06 02:48 | 44.60444 | 22.95214 | 36186 ft | 457 kts | 306° |
| 2026-05-06 02:49 | 44.62282 | 22.91632 | 36348 ft | 458 kts | 306° |
| 2026-05-06 02:49 | 44.66007 | 22.84357 | 36504 ft | 460 kts | 306° |
| 2026-05-06 02:49 | 44.67876 | 22.80699 | 36678 ft | 459 kts | 306° |
| 2026-05-06 02:50 | 44.69722 | 22.77083 | 36826 ft | 458 kts | 306° |
| 2026-05-06 02:50 | 44.71586 | 22.73426 | 36973 ft | 458 kts | 306° |
| 2026-05-06 02:50 | 44.73440 | 22.69785 | 37104 ft | 457 kts | 306° |
| 2026-05-06 02:50 | 44.75290 | 22.66145 | 37215 ft | 457 kts | 306° |
| 2026-05-06 02:51 | 44.77133 | 22.62517 | 37318 ft | 457 kts | 306° |
| 2026-05-06 02:51 | 44.78987 | 22.58867 | 37429 ft | 457 kts | 306° |
| 2026-05-06 02:51 | 44.80828 | 22.55242 | 37587 ft | 455 kts | 306° |
| 2026-05-06 02:51 | 44.82662 | 22.51619 | 37845 ft | 453 kts | 306° |
| 2026-05-06 02:52 | 44.84492 | 22.47995 | 37951 ft | 452 kts | 306° |
| 2026-05-06 02:52 | 44.88140 | 22.40760 | 38019 ft | 454 kts | 306° |
| 2026-05-06 02:53 | 44.91795 | 22.33497 | 38022 ft | 453 kts | 306° |
| 2026-05-06 02:53 | 44.95428 | 22.26259 | 38022 ft | 452 kts | 305° |
| 2026-05-06 02:54 | 44.99065 | 22.18996 | 38022 ft | 452 kts | 305° |
| 2026-05-06 02:54 | 45.02665 | 22.11788 | 38020 ft | 453 kts | 305° |
| 2026-05-06 02:55 | 45.06299 | 22.04494 | 38017 ft | 453 kts | 305° |
| 2026-05-06 02:55 | 45.09923 | 21.97204 | 38019 ft | 453 kts | 305° |
| 2026-05-06 02:56 | 45.13533 | 21.89921 | 38017 ft | 452 kts | 305° |
| 2026-05-06 02:56 | 45.17145 | 21.82617 | 38015 ft | 452 kts | 305° |
| 2026-05-06 02:57 | 45.20742 | 21.75323 | 38013 ft | 452 kts | 305° |
| 2026-05-06 02:57 | 45.23736 | 21.69239 | 38008 ft | 452 kts | 304° |
| 2026-05-06 02:58 | 45.27331 | 21.61916 | 38013 ft | 453 kts | 304° |
| 2026-05-06 02:58 | 45.30925 | 21.54574 | 38003 ft | 453 kts | 304° |
| 2026-05-06 02:59 | 45.34520 | 21.47211 | 38000 ft | 453 kts | 304° |
| 2026-05-06 02:59 | 45.38107 | 21.39848 | 38001 ft | 454 kts | 304° |
| 2026-05-06 03:00 | 45.41709 | 21.32436 | 37997 ft | 454 kts | 304° |
| 2026-05-06 03:00 | 45.45293 | 21.25039 | 38002 ft | 454 kts | 304° |
| 2026-05-06 03:01 | 45.48877 | 21.17624 | 38006 ft | 454 kts | 304° |
| 2026-05-06 03:01 | 45.52457 | 21.10197 | 38001 ft | 455 kts | 304° |
| 2026-05-06 03:02 | 45.56032 | 21.02763 | 37998 ft | 454 kts | 303° |
| 2026-05-06 03:02 | 45.59580 | 20.95363 | 37998 ft | 454 kts | 303° |
| 2026-05-06 03:03 | 45.63163 | 20.87870 | 37991 ft | 454 kts | 303° |
| 2026-05-06 03:03 | 45.66692 | 20.80472 | 38001 ft | 454 kts | 303° |
| 2026-05-06 03:04 | 45.70254 | 20.72985 | 37990 ft | 455 kts | 303° |
| 2026-05-06 03:04 | 45.73813 | 20.65485 | 37988 ft | 456 kts | 303° |
| 2026-05-06 03:05 | 45.77372 | 20.57965 | 37985 ft | 456 kts | 303° |
| 2026-05-06 03:05 | 45.80919 | 20.50449 | 37988 ft | 456 kts | 303° |
| 2026-05-06 03:06 | 45.84465 | 20.42919 | 37990 ft | 456 kts | 302° |
| 2026-05-06 03:06 | 45.88000 | 20.35387 | 37985 ft | 455 kts | 302° |
| 2026-05-06 03:07 | 45.91539 | 20.27829 | 37985 ft | 455 kts | 302° |
| 2026-05-06 03:07 | 45.95062 | 20.20284 | 37985 ft | 455 kts | 302° |
| 2026-05-06 03:08 | 45.98583 | 20.12726 | 37977 ft | 455 kts | 302° |
| 2026-05-06 03:08 | 46.02093 | 20.05168 | 37984 ft | 454 kts | 302° |
| 2026-05-06 03:09 | 46.05600 | 19.97596 | 37981 ft | 456 kts | 302° |
| 2026-05-06 03:09 | 46.09110 | 19.89997 | 37977 ft | 456 kts | 302° |
| 2026-05-06 03:10 | 46.12617 | 19.82386 | 37977 ft | 456 kts | 302° |
| 2026-05-06 03:10 | 46.16100 | 19.74806 | 37971 ft | 456 kts | 302° |
| 2026-05-06 03:11 | 46.19388 | 19.67002 | 37973 ft | 455 kts | 297° |
| 2026-05-06 03:11 | 46.22355 | 19.58950 | 37966 ft | 454 kts | 296° |
| 2026-05-06 03:12 | 46.25273 | 19.50844 | 37961 ft | 454 kts | 296° |
| 2026-05-06 03:12 | 46.28174 | 19.42749 | 37960 ft | 454 kts | 296° |
| 2026-05-06 03:13 | 46.31075 | 19.34646 | 37955 ft | 454 kts | 296° |
| 2026-05-06 03:13 | 46.33977 | 19.26527 | 37955 ft | 454 kts | 296° |
| 2026-05-06 03:14 | 46.36872 | 19.18407 | 37946 ft | 454 kts | 296° |
| 2026-05-06 03:14 | 46.39751 | 19.10305 | 37958 ft | 452 kts | 295° |
| 2026-05-06 03:15 | 46.42617 | 19.02213 | 37950 ft | 453 kts | 295° |
| 2026-05-06 03:15 | 46.45493 | 18.94070 | 37942 ft | 453 kts | 295° |
| 2026-05-06 03:16 | 46.48361 | 18.85923 | 37942 ft | 453 kts | 295° |
| 2026-05-06 03:16 | 46.51220 | 18.77779 | 37939 ft | 452 kts | 295° |
| 2026-05-06 03:17 | 46.54062 | 18.69659 | 37935 ft | 451 kts | 295° |
| 2026-05-06 03:17 | 46.56899 | 18.61524 | 37933 ft | 451 kts | 295° |
| 2026-05-06 03:18 | 46.59710 | 18.53441 | 37936 ft | 451 kts | 295° |
| 2026-05-06 03:18 | 46.62552 | 18.45246 | 37928 ft | 451 kts | 295° |
| 2026-05-06 03:19 | 46.65349 | 18.37151 | 37926 ft | 451 kts | 295° |
| 2026-05-06 03:19 | 46.68167 | 18.28972 | 37928 ft | 452 kts | 295° |
| 2026-05-06 03:20 | 46.72398 | 18.16647 | 37927 ft | 452 kts | 294° |
| 2026-05-06 03:20 | 46.75201 | 18.08448 | 37926 ft | 453 kts | 294° |
| 2026-05-06 03:21 | 46.77990 | 18.00264 | 37924 ft | 454 kts | 294° |
| 2026-05-06 03:21 | 46.80793 | 17.92014 | 37926 ft | 454 kts | 294° |
| 2026-05-06 03:22 | 46.83594 | 17.83742 | 37914 ft | 454 kts | 294° |
| 2026-05-06 03:22 | 46.86389 | 17.75465 | 37917 ft | 456 kts | 293° |
| 2026-05-06 03:23 | 46.89189 | 17.67144 | 37910 ft | 457 kts | 293° |
| 2026-05-06 03:23 | 46.91992 | 17.58787 | 37911 ft | 457 kts | 293° |
| 2026-05-06 03:24 | 46.94790 | 17.50418 | 37910 ft | 457 kts | 293° |
| 2026-05-06 03:24 | 46.97577 | 17.42057 | 37910 ft | 458 kts | 293° |
| 2026-05-06 03:25 | 47.00369 | 17.33653 | 37910 ft | 460 kts | 293° |
| 2026-05-06 03:25 | 47.03173 | 17.25186 | 37904 ft | 461 kts | 293° |
| 2026-05-06 03:26 | 47.05963 | 17.16734 | 37901 ft | 461 kts | 293° |
| 2026-05-06 03:26 | 47.08746 | 17.08276 | 37900 ft | 461 kts | 292° |
| 2026-05-06 03:27 | 47.11532 | 16.99781 | 37892 ft | 461 kts | 292° |
| 2026-05-06 03:27 | 47.14303 | 16.91301 | 37907 ft | 461 kts | 292° |
| 2026-05-06 03:28 | 47.17073 | 16.82797 | 37887 ft | 461 kts | 292° |
| 2026-05-06 03:28 | 47.19830 | 16.74304 | 37885 ft | 461 kts | 292° |
| 2026-05-06 03:29 | 47.22589 | 16.65780 | 37892 ft | 462 kts | 291° |
| 2026-05-06 03:29 | 47.25340 | 16.57247 | 37889 ft | 462 kts | 291° |
| 2026-05-06 03:30 | 47.28091 | 16.48691 | 37888 ft | 462 kts | 291° |
| 2026-05-06 03:30 | 47.31042 | 16.40244 | 37887 ft | 464 kts | 296° |
| 2026-05-06 03:31 | 47.34334 | 16.32034 | 37888 ft | 465 kts | 297° |
| 2026-05-06 03:31 | 47.37615 | 16.23824 | 37889 ft | 465 kts | 296° |
| 2026-05-06 03:32 | 47.40805 | 16.15627 | 37895 ft | 465 kts | 296° |
| 2026-05-06 03:32 | 47.43992 | 16.07324 | 37890 ft | 465 kts | 295° |
| 2026-05-06 03:33 | 47.47172 | 15.99001 | 37896 ft | 465 kts | 295° |
| 2026-05-06 03:33 | 47.50367 | 15.90616 | 37893 ft | 470 kts | 295° |
| 2026-05-06 03:34 | 47.53555 | 15.82234 | 37898 ft | 471 kts | 295° |
| 2026-05-06 03:34 | 47.56778 | 15.73737 | 37902 ft | 470 kts | 295° |
| 2026-05-06 03:35 | 47.59951 | 15.65344 | 37910 ft | 470 kts | 295° |
| 2026-05-06 03:35 | 47.63137 | 15.56890 | 37906 ft | 471 kts | 295° |
| 2026-05-06 03:36 | 47.66331 | 15.48390 | 37901 ft | 471 kts | 294° |
| 2026-05-06 03:36 | 47.69511 | 15.39888 | 37902 ft | 471 kts | 294° |
| 2026-05-06 03:37 | 47.72688 | 15.31370 | 37892 ft | 471 kts | 294° |
| 2026-05-06 03:37 | 47.75853 | 15.22862 | 37891 ft | 470 kts | 294° |
| 2026-05-06 03:38 | 47.79012 | 15.14349 | 37913 ft | 470 kts | 294° |
| 2026-05-06 03:38 | 47.82164 | 15.05821 | 37891 ft | 470 kts | 294° |
| 2026-05-06 03:39 | 47.85307 | 14.97291 | 37888 ft | 470 kts | 294° |
| 2026-05-06 03:39 | 47.88435 | 14.88771 | 37896 ft | 469 kts | 294° |
| 2026-05-06 03:40 | 47.91558 | 14.80243 | 37893 ft | 467 kts | 294° |
| 2026-05-06 03:40 | 47.94655 | 14.71752 | 37894 ft | 467 kts | 294° |
| 2026-05-06 03:41 | 47.97756 | 14.63223 | 37893 ft | 467 kts | 294° |
| 2026-05-06 03:41 | 48.00848 | 14.54693 | 37896 ft | 467 kts | 293° |
| 2026-05-06 03:42 | 48.03934 | 14.46152 | 37873 ft | 467 kts | 293° |
| 2026-05-06 03:42 | 48.07010 | 14.37609 | 37870 ft | 467 kts | 293° |
| 2026-05-06 03:43 | 48.10075 | 14.29073 | 37864 ft | 467 kts | 293° |
| 2026-05-06 03:43 | 48.13147 | 14.20487 | 37886 ft | 467 kts | 293° |
| 2026-05-06 03:44 | 48.15691 | 14.13356 | 37857 ft | 467 kts | 292° |
| 2026-05-06 03:44 | 48.18748 | 14.04761 | 37886 ft | 468 kts | 292° |
| 2026-05-06 03:45 | 48.21799 | 13.96155 | 37880 ft | 467 kts | 292° |
| 2026-05-06 03:45 | 48.24841 | 13.87545 | 37884 ft | 468 kts | 292° |
| 2026-05-06 03:46 | 48.27881 | 13.78916 | 37881 ft | 469 kts | 292° |
| 2026-05-06 03:46 | 48.30934 | 13.70213 | 37886 ft | 471 kts | 292° |
| 2026-05-06 03:47 | 48.33981 | 13.61505 | 37881 ft | 471 kts | 292° |
| 2026-05-06 03:47 | 48.37021 | 13.52788 | 37881 ft | 471 kts | 292° |
| 2026-05-06 03:48 | 48.40051 | 13.44068 | 37891 ft | 471 kts | 292° |
| 2026-05-06 03:48 | 48.43072 | 13.35294 | 37874 ft | 473 kts | 290° |
| 2026-05-06 03:49 | 48.45619 | 13.26255 | 37877 ft | 471 kts | 287° |
| 2026-05-06 03:49 | 48.48045 | 13.17106 | 37874 ft | 470 kts | 286° |
| 2026-05-06 03:50 | 48.50444 | 13.07929 | 37876 ft | 470 kts | 286° |
| 2026-05-06 03:50 | 48.52838 | 12.98747 | 37868 ft | 471 kts | 287° |
| 2026-05-06 03:51 | 48.55243 | 12.89534 | 37853 ft | 472 kts | 287° |
| 2026-05-06 03:51 | 48.57640 | 12.80311 | 37855 ft | 472 kts | 286° |
| 2026-05-06 03:52 | 48.60023 | 12.71094 | 37869 ft | 472 kts | 286° |
| 2026-05-06 03:52 | 48.62406 | 12.61844 | 37857 ft | 472 kts | 286° |
| 2026-05-06 03:53 | 48.64783 | 12.52583 | 37872 ft | 473 kts | 286° |
| 2026-05-06 03:53 | 48.67156 | 12.43305 | 37856 ft | 473 kts | 286° |
| 2026-05-06 03:54 | 48.69521 | 12.34019 | 37845 ft | 473 kts | 286° |
| 2026-05-06 03:54 | 48.71875 | 12.24733 | 37867 ft | 473 kts | 286° |
| 2026-05-06 03:55 | 48.74228 | 12.15427 | 37851 ft | 474 kts | 287° |
| 2026-05-06 03:55 | 48.77103 | 12.06393 | 37852 ft | 478 kts | 292° |
| 2026-05-06 03:56 | 48.80130 | 11.97680 | 37854 ft | 478 kts | 293° |
| 2026-05-06 03:56 | 48.83259 | 11.88775 | 37853 ft | 478 kts | 293° |
| 2026-05-06 03:57 | 48.86374 | 11.79871 | 37853 ft | 478 kts | 293° |
| 2026-05-06 03:57 | 48.89476 | 11.70945 | 37854 ft | 477 kts | 293° |
| 2026-05-06 03:58 | 48.92565 | 11.62015 | 37857 ft | 477 kts | 293° |
| 2026-05-06 03:58 | 48.95649 | 11.53068 | 37853 ft | 477 kts | 293° |
| 2026-05-06 03:59 | 48.98726 | 11.44110 | 37859 ft | 477 kts | 293° |
| 2026-05-06 03:59 | 49.01794 | 11.35150 | 37858 ft | 477 kts | 293° |
| 2026-05-06 04:00 | 49.04849 | 11.26198 | 37862 ft | 477 kts | 293° |
| 2026-05-06 04:00 | 49.07879 | 11.17289 | 37862 ft | 476 kts | 293° |
| 2026-05-06 04:01 | 49.11318 | 11.08600 | 37857 ft | 483 kts | 304° |
| 2026-05-06 04:01 | 49.15993 | 11.01166 | 37863 ft | 488 kts | 312° |
| 2026-05-06 04:02 | 49.20970 | 10.94081 | 37860 ft | 489 kts | 313° |
| 2026-05-06 04:02 | 49.25997 | 10.87020 | 37841 ft | 490 kts | 313° |
| 2026-05-06 04:03 | 49.31004 | 10.79928 | 37834 ft | 491 kts | 313° |
| 2026-05-06 04:03 | 49.35579 | 10.72254 | 37845 ft | 485 kts | 303° |
| 2026-05-06 04:04 | 49.39603 | 10.63959 | 37834 ft | 486 kts | 302° |
| 2026-05-06 04:04 | 49.43558 | 10.55520 | 37817 ft | 486 kts | 302° |
| 2026-05-06 04:05 | 49.47493 | 10.47078 | 37814 ft | 486 kts | 302° |
| 2026-05-06 04:05 | 49.51435 | 10.38626 | 37816 ft | 486 kts | 302° |
| 2026-05-06 04:06 | 49.55373 | 10.30174 | 37808 ft | 487 kts | 302° |
| 2026-05-06 04:06 | 49.59311 | 10.21697 | 37806 ft | 487 kts | 302° |
| 2026-05-06 04:07 | 49.63255 | 10.13181 | 37802 ft | 487 kts | 302° |
| 2026-05-06 04:07 | 49.67184 | 10.04668 | 37802 ft | 487 kts | 302° |
| 2026-05-06 04:08 | 49.70501 | 9.95688 | 37825 ft | 480 kts | 288° |
| 2026-05-06 04:08 | 49.71975 | 9.85743 | 37809 ft | 473 kts | 272° |
| 2026-05-06 04:09 | 49.72361 | 9.75621 | 37802 ft | 473 kts | 270° |
| 2026-05-06 04:09 | 49.72578 | 9.65510 | 37801 ft | 473 kts | 269° |
| 2026-05-06 04:10 | 49.72793 | 9.55305 | 37799 ft | 473 kts | 269° |
| 2026-05-06 04:10 | 49.73023 | 9.45190 | 37799 ft | 474 kts | 270° |
| 2026-05-06 04:11 | 49.73258 | 9.34992 | 37796 ft | 474 kts | 270° |
| 2026-05-06 04:11 | 49.73486 | 9.24800 | 37796 ft | 474 kts | 270° |
| 2026-05-06 04:12 | 49.73702 | 9.14610 | 37793 ft | 474 kts | 270° |
| 2026-05-06 04:12 | 49.73910 | 9.04423 | 37801 ft | 474 kts | 270° |
| 2026-05-06 04:13 | 49.74110 | 8.94207 | 37787 ft | 476 kts | 270° |
| 2026-05-06 04:13 | 49.74300 | 8.83996 | 37788 ft | 476 kts | 269° |
| 2026-05-06 04:14 | 49.74481 | 8.73757 | 37790 ft | 476 kts | 269° |
| 2026-05-06 04:14 | 49.74653 | 8.63522 | 37788 ft | 476 kts | 269° |
| 2026-05-06 04:15 | 49.74815 | 8.53404 | 37790 ft | 476 kts | 269° |
| 2026-05-06 04:15 | 49.75702 | 8.43225 | 37785 ft | 479 kts | 280° |
| 2026-05-06 04:16 | 49.77237 | 8.33201 | 37779 ft | 480 kts | 282° |
| 2026-05-06 04:16 | 49.78869 | 8.23177 | 37780 ft | 480 kts | 282° |
| 2026-05-06 04:17 | 49.80489 | 8.13169 | 37780 ft | 480 kts | 281° |
| 2026-05-06 04:17 | 49.82088 | 8.03122 | 37775 ft | 481 kts | 281° |
| 2026-05-06 04:18 | 49.83783 | 7.93349 | 37771 ft | 482 kts | 284° |
| 2026-05-06 04:18 | 49.85713 | 7.83356 | 37772 ft | 482 kts | 284° |
| 2026-05-06 04:19 | 49.87614 | 7.73401 | 37771 ft | 482 kts | 284° |
| 2026-05-06 04:19 | 49.89474 | 7.63405 | 37768 ft | 483 kts | 283° |
| 2026-05-06 04:20 | 49.91314 | 7.53375 | 37765 ft | 483 kts | 283° |
| 2026-05-06 04:20 | 49.93141 | 7.43356 | 37773 ft | 483 kts | 283° |
| 2026-05-06 04:21 | 49.94961 | 7.33325 | 37773 ft | 483 kts | 283° |
| 2026-05-06 04:21 | 49.96761 | 7.23357 | 37774 ft | 483 kts | 283° |
| 2026-05-06 04:22 | 49.98567 | 7.13303 | 37776 ft | 483 kts | 283° |
| 2026-05-06 04:23 | 50.01257 | 6.98217 | 37748 ft | 483 kts | 283° |
| 2026-05-06 04:23 | 50.03544 | 6.88393 | 37750 ft | 486 kts | 295° |
| 2026-05-06 04:24 | 50.06699 | 6.79084 | 37746 ft | 486 kts | 297° |
| 2026-05-06 04:24 | 50.09978 | 6.69891 | 37747 ft | 486 kts | 297° |
| 2026-05-06 04:25 | 50.13263 | 6.60690 | 37748 ft | 486 kts | 297° |
| 2026-05-06 04:25 | 50.16538 | 6.51457 | 37743 ft | 486 kts | 297° |
| 2026-05-06 04:26 | 50.20666 | 6.43068 | 37762 ft | 491 kts | 314° |
| 2026-05-06 04:26 | 50.25791 | 6.36007 | 37753 ft | 493 kts | 318° |
| 2026-05-06 04:27 | 50.31085 | 6.29169 | 37753 ft | 494 kts | 319° |
| 2026-05-06 04:27 | 50.36393 | 6.22342 | 37765 ft | 494 kts | 319° |
| 2026-05-06 04:28 | 50.41691 | 6.15461 | 37785 ft | 494 kts | 318° |
| 2026-05-06 04:28 | 50.46966 | 6.08558 | 37788 ft | 494 kts | 318° |
| 2026-05-06 04:29 | 50.52240 | 6.01631 | 37789 ft | 494 kts | 318° |
| 2026-05-06 04:29 | 50.57482 | 5.94725 | 37802 ft | 495 kts | 318° |
| 2026-05-06 04:30 | 50.62521 | 5.87290 | 37800 ft | 492 kts | 307° |
| 2026-05-06 04:30 | 50.66009 | 5.78134 | 37815 ft | 486 kts | 289° |
| 2026-05-06 04:31 | 50.67765 | 5.69753 | 37805 ft | 486 kts | 284° |
| 2026-05-06 04:31 | 50.69995 | 5.57870 | 37811 ft | 486 kts | 285° |
| 2026-05-06 04:32 | 50.72038 | 5.47691 | 37799 ft | 487 kts | 286° |
| 2026-05-06 04:32 | 50.73765 | 5.39166 | 37801 ft | 487 kts | 286° |
| 2026-05-06 04:33 | 50.75818 | 5.28949 | 37814 ft | 487 kts | 285° |
| 2026-05-06 04:33 | 50.77836 | 5.18799 | 37814 ft | 488 kts | 285° |
| 2026-05-06 04:34 | 50.79858 | 5.08559 | 37832 ft | 488 kts | 285° |
| 2026-05-06 04:34 | 50.81877 | 4.98252 | 37838 ft | 487 kts | 285° |
| 2026-05-06 04:35 | 50.83816 | 4.88048 | 37843 ft | 487 kts | 285° |
| 2026-05-06 04:35 | 50.85746 | 4.77788 | 37846 ft | 487 kts | 285° |
| 2026-05-06 04:36 | 50.87683 | 4.67482 | 37845 ft | 487 kts | 285° |
| 2026-05-06 04:36 | 50.89641 | 4.57262 | 37828 ft | 487 kts | 288° |
| 2026-05-06 04:37 | 50.92643 | 4.47595 | 37830 ft | 489 kts | 298° |
| 2026-05-06 04:37 | 50.96129 | 4.38340 | 37829 ft | 490 kts | 300° |
| 2026-05-06 04:38 | 50.99691 | 4.29119 | 37836 ft | 490 kts | 300° |
| 2026-05-06 04:38 | 51.03231 | 4.19903 | 37843 ft | 490 kts | 300° |
| 2026-05-06 04:39 | 51.06760 | 4.10632 | 37858 ft | 490 kts | 300° |
| 2026-05-06 04:39 | 51.10271 | 4.01355 | 37856 ft | 490 kts | 299° |
| 2026-05-06 04:40 | 51.13771 | 3.92074 | 37861 ft | 489 kts | 299° |
| 2026-05-06 04:40 | 51.17267 | 3.82768 | 37862 ft | 489 kts | 299° |
| 2026-05-06 04:41 | 51.20763 | 3.73430 | 37867 ft | 489 kts | 299° |
| 2026-05-06 04:41 | 51.23694 | 3.63702 | 37867 ft | 486 kts | 286° |
| 2026-05-06 04:42 | 51.25342 | 3.53248 | 37865 ft | 486 kts | 281° |
| 2026-05-06 04:42 | 51.26735 | 3.42716 | 37877 ft | 486 kts | 280° |
| 2026-05-06 04:43 | 51.28086 | 3.32153 | 37893 ft | 486 kts | 280° |
| 2026-05-06 04:43 | 51.29418 | 3.21598 | 37886 ft | 484 kts | 279° |
| 2026-05-06 04:44 | 51.30749 | 3.11073 | 37882 ft | 481 kts | 280° |
| 2026-05-06 04:44 | 51.32062 | 3.00666 | 37884 ft | 481 kts | 280° |
| 2026-05-06 04:45 | 51.33387 | 2.90107 | 37883 ft | 481 kts | 280° |
| 2026-05-06 04:45 | 51.34684 | 2.79686 | 37893 ft | 479 kts | 280° |
| 2026-05-06 04:46 | 51.35983 | 2.69208 | 37891 ft | 481 kts | 280° |
| 2026-05-06 04:46 | 51.37275 | 2.58717 | 37900 ft | 481 kts | 279° |
| 2026-05-06 04:47 | 51.38553 | 2.48233 | 37908 ft | 480 kts | 279° |
| 2026-05-06 04:47 | 51.39823 | 2.37744 | 37915 ft | 481 kts | 279° |
| 2026-05-06 04:48 | 51.41090 | 2.27211 | 37919 ft | 480 kts | 279° |
| 2026-05-06 04:48 | 51.42362 | 2.16721 | 37917 ft | 481 kts | 280° |
| 2026-05-06 04:49 | 51.43648 | 2.06177 | 37904 ft | 482 kts | 280° |
| 2026-05-06 04:49 | 51.44929 | 1.95628 | 37917 ft | 481 kts | 279° |
| 2026-05-06 04:50 | 51.46171 | 1.85103 | 37916 ft | 482 kts | 279° |
| 2026-05-06 04:50 | 51.47390 | 1.74547 | 37919 ft | 481 kts | 278° |
| 2026-05-06 04:51 | 51.48592 | 1.63982 | 37944 ft | 480 kts | 278° |
| 2026-05-06 04:51 | 51.49790 | 1.53474 | 37949 ft | 481 kts | 278° |
| 2026-05-06 04:52 | 51.50984 | 1.42893 | 37932 ft | 480 kts | 279° |
| 2026-05-06 04:52 | 51.52164 | 1.32339 | 37946 ft | 480 kts | 279° |
| 2026-05-06 04:53 | 51.53335 | 1.21785 | 37947 ft | 480 kts | 279° |
| 2026-05-06 04:53 | 51.54118 | 1.11188 | 37977 ft | 478 kts | 269° |
| 2026-05-06 04:54 | 51.54103 | 1.00485 | 37954 ft | 479 kts | 268° |
| 2026-05-06 04:54 | 51.53960 | 0.89793 | 37959 ft | 478 kts | 268° |
| 2026-05-06 04:55 | 51.53788 | 0.79122 | 37964 ft | 478 kts | 268° |
| 2026-05-06 04:55 | 51.53619 | 0.68453 | 37965 ft | 478 kts | 268° |
| 2026-05-06 04:56 | 51.53449 | 0.57763 | 37967 ft | 478 kts | 268° |
| 2026-05-06 04:56 | 51.53272 | 0.47091 | 37946 ft | 478 kts | 268° |
| 2026-05-06 04:57 | 51.53092 | 0.36432 | 37986 ft | 479 kts | 268° |
| 2026-05-06 04:57 | 51.53091 | 0.25745 | 37990 ft | 479 kts | 270° |
| 2026-05-06 04:58 | 51.53167 | 0.15053 | 37992 ft | 479 kts | 270° |
| 2026-05-06 04:58 | 51.53212 | 0.04528 | 37993 ft | 479 kts | 270° |
| 2026-05-06 04:59 | 51.53223 | -0.05980 | 37992 ft | 479 kts | 269° |
| 2026-05-06 04:59 | 51.53217 | -0.16630 | 37969 ft | 478 kts | 269° |
| 2026-05-06 05:00 | 51.53202 | -0.27272 | 37975 ft | 478 kts | 269° |
| 2026-05-06 05:00 | 51.53179 | -0.37861 | 37968 ft | 478 kts | 269° |
| 2026-05-06 05:01 | 51.53147 | -0.48315 | 37971 ft | 478 kts | 269° |
| 2026-05-06 05:01 | 51.53114 | -0.56844 | 37993 ft | 478 kts | 269° |
| 2026-05-06 05:02 | 51.53064 | -0.67441 | 37991 ft | 478 kts | 269° |
| 2026-05-06 05:02 | 51.53005 | -0.78107 | 37993 ft | 478 kts | 269° |
| 2026-05-06 05:03 | 51.52935 | -0.88802 | 37991 ft | 478 kts | 269° |
| 2026-05-06 05:03 | 51.52873 | -0.97305 | 37995 ft | 478 kts | 269° |
| 2026-05-06 05:04 | 51.52786 | -1.07978 | 37992 ft | 478 kts | 269° |
| 2026-05-06 05:04 | 51.53039 | -1.18258 | 37993 ft | 478 kts | 278° |
| 2026-05-06 05:05 | 51.54151 | -1.28782 | 37993 ft | 479 kts | 280° |
| 2026-05-06 05:05 | 51.55397 | -1.39277 | 37991 ft | 478 kts | 280° |
| 2026-05-06 05:06 | 51.56646 | -1.49754 | 37991 ft | 478 kts | 280° |
| 2026-05-06 05:06 | 51.57870 | -1.60275 | 37997 ft | 478 kts | 279° |
| 2026-05-06 05:07 | 51.58165 | -1.70929 | 37997 ft | 478 kts | 267° |
| 2026-05-06 05:07 | 51.57717 | -1.81576 | 38000 ft | 478 kts | 265° |
| 2026-05-06 05:08 | 51.57144 | -1.92233 | 38007 ft | 478 kts | 265° |
| 2026-05-06 05:08 | 51.56564 | -2.02852 | 38002 ft | 477 kts | 265° |
| 2026-05-06 05:09 | 51.55991 | -2.13470 | 38007 ft | 477 kts | 265° |
| 2026-05-06 05:09 | 51.55417 | -2.24097 | 38007 ft | 477 kts | 265° |
| 2026-05-06 05:10 | 51.54838 | -2.34648 | 38002 ft | 477 kts | 265° |
| 2026-05-06 05:10 | 51.54241 | -2.45326 | 37999 ft | 477 kts | 265° |
| 2026-05-06 05:11 | 51.53643 | -2.55845 | 37999 ft | 476 kts | 265° |
| 2026-05-06 05:11 | 51.53028 | -2.66502 | 37997 ft | 475 kts | 265° |
| 2026-05-06 05:12 | 51.52408 | -2.77075 | 37995 ft | 476 kts | 265° |
| 2026-05-06 05:12 | 51.51782 | -2.87566 | 38017 ft | 476 kts | 265° |
| 2026-05-06 05:13 | 51.51143 | -2.98130 | 38012 ft | 475 kts | 265° |
| 2026-05-06 05:13 | 51.50496 | -3.08665 | 37998 ft | 474 kts | 264° |
| 2026-05-06 05:14 | 51.49839 | -3.19217 | 37994 ft | 474 kts | 264° |
| 2026-05-06 05:14 | 51.49174 | -3.29726 | 37993 ft | 474 kts | 264° |
| 2026-05-06 05:15 | 51.48498 | -3.40265 | 37990 ft | 474 kts | 264° |
| 2026-05-06 05:15 | 51.47813 | -3.50794 | 37993 ft | 474 kts | 264° |
| 2026-05-06 05:16 | 51.47121 | -3.61286 | 37993 ft | 474 kts | 264° |
| 2026-05-06 05:16 | 51.46417 | -3.71814 | 37993 ft | 474 kts | 264° |
| 2026-05-06 05:17 | 51.45827 | -3.80524 | 37996 ft | 474 kts | 264° |
| 2026-05-06 05:17 | 51.45107 | -3.91028 | 37994 ft | 474 kts | 264° |
| 2026-05-06 05:18 | 51.44376 | -4.01551 | 38004 ft | 474 kts | 264° |
| 2026-05-06 05:18 | 51.43637 | -4.12047 | 37994 ft | 474 kts | 264° |
| 2026-05-06 05:19 | 51.42889 | -4.22535 | 37998 ft | 474 kts | 264° |
| 2026-05-06 05:19 | 51.42132 | -4.33032 | 37992 ft | 474 kts | 264° |
| 2026-05-06 05:20 | 51.41602 | -4.43523 | 37999 ft | 473 kts | 267° |
| 2026-05-06 05:20 | 51.41217 | -4.54057 | 37998 ft | 473 kts | 267° |
| 2026-05-06 05:21 | 51.40798 | -4.64556 | 38001 ft | 473 kts | 266° |
| 2026-05-06 05:21 | 51.40331 | -4.75093 | 38002 ft | 473 kts | 266° |
| 2026-05-06 05:22 | 51.39844 | -4.85578 | 38006 ft | 472 kts | 266° |
| 2026-05-06 05:22 | 51.39347 | -4.96061 | 38002 ft | 472 kts | 266° |
| 2026-05-06 05:23 | 51.38843 | -5.06537 | 38005 ft | 472 kts | 266° |
| 2026-05-06 05:23 | 51.38070 | -5.22252 | 38003 ft | 472 kts | 266° |
| 2026-05-06 05:24 | 51.37544 | -5.32718 | 38003 ft | 472 kts | 265° |
| 2026-05-06 05:24 | 51.37008 | -5.43181 | 38009 ft | 472 kts | 265° |
| 2026-05-06 05:25 | 51.36464 | -5.53638 | 38009 ft | 472 kts | 265° |
| 2026-05-06 05:25 | 51.35908 | -5.64117 | 38011 ft | 472 kts | 265° |
| 2026-05-06 05:26 | 51.35344 | -5.74576 | 38019 ft | 472 kts | 265° |
| 2026-05-06 05:26 | 51.34775 | -5.84969 | 38018 ft | 472 kts | 265° |
| 2026-05-06 05:27 | 51.34192 | -5.95427 | 38019 ft | 472 kts | 265° |
| 2026-05-06 05:27 | 51.33600 | -6.05891 | 38017 ft | 472 kts | 265° |
| 2026-05-06 05:28 | 51.33000 | -6.16324 | 38022 ft | 472 kts | 265° |
| 2026-05-06 05:28 | 51.32387 | -6.26807 | 38024 ft | 472 kts | 265° |
| 2026-05-06 05:29 | 51.31767 | -6.37249 | 38022 ft | 472 kts | 265° |
| 2026-05-06 05:29 | 51.31137 | -6.47710 | 38021 ft | 472 kts | 265° |
| 2026-05-06 05:30 | 51.30498 | -6.58162 | 38026 ft | 472 kts | 265° |
| 2026-05-06 05:30 | 51.29850 | -6.68614 | 38024 ft | 472 kts | 265° |
| 2026-05-06 05:31 | 51.29193 | -6.79042 | 38029 ft | 472 kts | 265° |
| 2026-05-06 05:31 | 51.28526 | -6.89482 | 38033 ft | 472 kts | 265° |
| 2026-05-06 05:32 | 51.27850 | -6.99927 | 38029 ft | 473 kts | 265° |
| 2026-05-06 05:32 | 51.27165 | -7.10352 | 38031 ft | 473 kts | 264° |
| 2026-05-06 05:33 | 51.26470 | -7.20796 | 38028 ft | 473 kts | 264° |
| 2026-05-06 05:33 | 51.25766 | -7.31219 | 38027 ft | 473 kts | 264° |
| 2026-05-06 05:34 | 51.25052 | -7.41660 | 38028 ft | 473 kts | 264° |
| 2026-05-06 05:34 | 51.24329 | -7.52081 | 38025 ft | 473 kts | 264° |
| 2026-05-06 05:35 | 51.24027 | -7.62548 | 38025 ft | 472 kts | 270° |
| 2026-05-06 05:35 | 51.24024 | -7.73019 | 38023 ft | 472 kts | 271° |
| 2026-05-06 05:36 | 51.24057 | -7.83477 | 38037 ft | 472 kts | 271° |
| 2026-05-06 05:36 | 51.24078 | -7.93959 | 38038 ft | 472 kts | 270° |
| 2026-05-06 05:37 | 51.24082 | -8.04455 | 38019 ft | 472 kts | 270° |
| 2026-05-06 05:37 | 51.24073 | -8.14933 | 38011 ft | 472 kts | 270° |
| 2026-05-06 05:38 | 51.24055 | -8.25345 | 38030 ft | 473 kts | 270° |
| 2026-05-06 05:38 | 51.24028 | -8.35825 | 38033 ft | 473 kts | 270° |
| 2026-05-06 05:39 | 51.23991 | -8.46322 | 38018 ft | 473 kts | 270° |
| 2026-05-06 05:39 | 51.23945 | -8.56833 | 38013 ft | 473 kts | 270° |
| 2026-05-06 05:40 | 51.23890 | -8.67310 | 38030 ft | 473 kts | 270° |
| 2026-05-06 05:40 | 51.23825 | -8.77805 | 38028 ft | 473 kts | 270° |
| 2026-05-06 05:41 | 51.23751 | -8.88295 | 38023 ft | 473 kts | 270° |
| 2026-05-06 05:41 | 51.23668 | -8.98799 | 38048 ft | 473 kts | 270° |
| 2026-05-06 05:42 | 51.23575 | -9.09319 | 38024 ft | 473 kts | 270° |
| 2026-05-06 05:42 | 51.23472 | -9.19837 | 38026 ft | 474 kts | 270° |
| 2026-05-06 05:43 | 51.23361 | -9.30327 | 38024 ft | 474 kts | 270° |
| 2026-05-06 05:43 | 51.23239 | -9.40858 | 38047 ft | 474 kts | 270° |
| 2026-05-06 05:44 | 51.23109 | -9.51363 | 38050 ft | 474 kts | 270° |
| 2026-05-06 05:44 | 51.22969 | -9.61881 | 38040 ft | 474 kts | 270° |
| 2026-05-06 05:45 | 51.22819 | -9.72411 | 38047 ft | 475 kts | 270° |
| 2026-05-06 05:45 | 51.22660 | -9.82943 | 38047 ft | 475 kts | 269° |
| 2026-05-06 05:46 | 51.22492 | -9.93411 | 38027 ft | 475 kts | 269° |
| 2026-05-06 05:46 | 51.22314 | -10.03943 | 38048 ft | 475 kts | 269° |
| 2026-05-06 05:47 | 51.22125 | -10.14535 | 38053 ft | 475 kts | 269° |
| 2026-05-06 05:47 | 51.21928 | -10.25049 | 38053 ft | 475 kts | 269° |
| 2026-05-06 05:48 | 51.21723 | -10.35537 | 38053 ft | 475 kts | 269° |
| 2026-05-06 05:48 | 51.21506 | -10.46123 | 38049 ft | 475 kts | 269° |
| 2026-05-06 05:49 | 51.21280 | -10.56668 | 38058 ft | 475 kts | 269° |
| 2026-05-06 05:49 | 51.21046 | -10.67138 | 38058 ft | 476 kts | 269° |
| 2026-05-06 05:50 | 51.20768 | -10.77668 | 38061 ft | 476 kts | 267° |
| 2026-05-06 05:50 | 51.20225 | -10.88190 | 38060 ft | 476 kts | 266° |
| 2026-05-06 05:51 | 51.19617 | -10.98719 | 38063 ft | 476 kts | 266° |
| 2026-05-06 05:51 | 51.19038 | -11.09230 | 38072 ft | 477 kts | 266° |
| 2026-05-06 05:52 | 51.18473 | -11.19780 | 38071 ft | 477 kts | 266° |
| 2026-05-06 05:52 | 51.17906 | -11.30290 | 38072 ft | 477 kts | 266° |
| 2026-05-06 05:53 | 51.17326 | -11.40844 | 38071 ft | 477 kts | 266° |
| 2026-05-06 05:53 | 51.16738 | -11.51351 | 38075 ft | 477 kts | 266° |
| 2026-05-06 05:54 | 51.16138 | -11.61897 | 38073 ft | 478 kts | 266° |
| 2026-05-06 05:54 | 51.15527 | -11.72448 | 38080 ft | 478 kts | 266° |
| 2026-05-06 05:55 | 51.14908 | -11.82990 | 38075 ft | 478 kts | 266° |
| 2026-05-06 05:55 | 51.14278 | -11.93538 | 38081 ft | 478 kts | 266° |
| 2026-05-06 05:56 | 51.13641 | -12.04063 | 38083 ft | 479 kts | 266° |
| 2026-05-06 05:56 | 51.12991 | -12.14628 | 38084 ft | 479 kts | 265° |
| 2026-05-06 05:57 | 51.12333 | -12.25177 | 38086 ft | 479 kts | 265° |
| 2026-05-06 05:57 | 51.11664 | -12.35735 | 38087 ft | 479 kts | 265° |
| 2026-05-06 05:58 | 51.10991 | -12.46208 | 38087 ft | 479 kts | 265° |
| 2026-05-06 05:58 | 51.10299 | -12.56820 | 38088 ft | 480 kts | 265° |
| 2026-05-06 05:59 | 51.09601 | -12.67390 | 38088 ft | 480 kts | 265° |
| 2026-05-06 05:59 | 51.08893 | -12.77955 | 38088 ft | 480 kts | 265° |
| 2026-05-06 06:00 | 51.08181 | -12.88438 | 38080 ft | 480 kts | 265° |
| 2026-05-06 06:00 | 51.07448 | -12.99078 | 38096 ft | 481 kts | 265° |
| 2026-05-06 06:01 | 51.06710 | -13.09653 | 38097 ft | 481 kts | 265° |
| 2026-05-06 06:01 | 51.06091 | -13.18424 | 38094 ft | 482 kts | 265° |
| 2026-05-06 06:02 | 51.05209 | -13.30746 | 38097 ft | 482 kts | 265° |
| 2026-05-06 06:02 | 51.04442 | -13.41313 | 38102 ft | 482 kts | 265° |
| 2026-05-06 06:03 | 51.03792 | -13.50171 | 38101 ft | 483 kts | 265° |
| 2026-05-06 06:03 | 51.02877 | -13.62486 | 38101 ft | 483 kts | 265° |
| 2026-05-06 06:04 | 51.02208 | -13.71371 | 38101 ft | 483 kts | 265° |
| 2026-05-06 06:04 | 51.01408 | -13.81881 | 38098 ft | 483 kts | 265° |
| 2026-05-06 06:05 | 51.00592 | -13.92476 | 38101 ft | 483 kts | 265° |
| 2026-05-06 06:05 | 51.00058 | -14.03082 | 38108 ft | 482 kts | 271° |
| 2026-05-06 06:06 | 51.00029 | -14.13726 | 38107 ft | 482 kts | 272° |
| 2026-05-06 06:06 | 51.00067 | -14.24419 | 38109 ft | 482 kts | 272° |
| 2026-05-06 06:07 | 51.00100 | -14.34985 | 38099 ft | 482 kts | 272° |
| 2026-05-06 06:07 | 51.00114 | -14.45598 | 38109 ft | 482 kts | 272° |
| 2026-05-06 06:08 | 51.00113 | -14.56269 | 38112 ft | 482 kts | 272° |
| 2026-05-06 06:08 | 51.00102 | -14.66914 | 38107 ft | 482 kts | 272° |
| 2026-05-06 06:09 | 51.00082 | -14.77536 | 38105 ft | 482 kts | 272° |
| 2026-05-06 06:09 | 51.00052 | -14.88200 | 38105 ft | 482 kts | 272° |
| 2026-05-06 06:10 | 51.00112 | -14.98848 | 38113 ft | 481 kts | 277° |
| 2026-05-06 06:10 | 51.01124 | -15.09306 | 38114 ft | 479 kts | 282° |
| 2026-05-06 06:11 | 51.02365 | -15.19674 | 38118 ft | 479 kts | 283° |
| 2026-05-06 06:11 | 51.03641 | -15.30082 | 38113 ft | 479 kts | 283° |
| 2026-05-06 06:12 | 51.04894 | -15.40473 | 38111 ft | 479 kts | 283° |
| 2026-05-06 06:12 | 51.06127 | -15.50862 | 38115 ft | 479 kts | 283° |
| 2026-05-06 06:13 | 51.07349 | -15.61280 | 38111 ft | 479 kts | 283° |
| 2026-05-06 06:13 | 51.08563 | -15.71701 | 38112 ft | 479 kts | 283° |
| 2026-05-06 06:14 | 51.09768 | -15.82139 | 38116 ft | 479 kts | 282° |
| 2026-05-06 06:14 | 51.10963 | -15.92569 | 38121 ft | 480 kts | 283° |
| 2026-05-06 06:15 | 51.12143 | -16.02947 | 38126 ft | 480 kts | 282° |
| 2026-05-06 06:15 | 51.13330 | -16.13482 | 38126 ft | 480 kts | 282° |
| 2026-05-06 06:16 | 51.14499 | -16.23941 | 38125 ft | 480 kts | 282° |
| 2026-05-06 06:16 | 51.15650 | -16.34338 | 38124 ft | 480 kts | 282° |
| 2026-05-06 06:17 | 51.16808 | -16.44876 | 38127 ft | 480 kts | 283° |
| 2026-05-06 06:17 | 51.17949 | -16.55355 | 38127 ft | 480 kts | 282° |
| 2026-05-06 06:18 | 51.19080 | -16.65833 | 38126 ft | 480 kts | 282° |
| 2026-05-06 06:18 | 51.20197 | -16.76264 | 38127 ft | 480 kts | 282° |
| 2026-05-06 06:19 | 51.21309 | -16.86752 | 38131 ft | 480 kts | 282° |
| 2026-05-06 06:19 | 51.22413 | -16.97259 | 38132 ft | 480 kts | 282° |
| 2026-05-06 06:20 | 51.23508 | -17.07770 | 38129 ft | 480 kts | 282° |
| 2026-05-06 06:20 | 51.24594 | -17.18288 | 38129 ft | 480 kts | 282° |
| 2026-05-06 06:21 | 51.25670 | -17.28809 | 38135 ft | 480 kts | 282° |
| 2026-05-06 06:21 | 51.26731 | -17.39285 | 38135 ft | 479 kts | 282° |
| 2026-05-06 06:22 | 51.27787 | -17.49801 | 38135 ft | 478 kts | 282° |
| 2026-05-06 06:22 | 51.28830 | -17.60294 | 38133 ft | 477 kts | 282° |
| 2026-05-06 06:23 | 51.29863 | -17.70775 | 38125 ft | 477 kts | 282° |
| 2026-05-06 06:23 | 51.30885 | -17.81247 | 38132 ft | 477 kts | 282° |
| 2026-05-06 06:24 | 51.31899 | -17.91735 | 38127 ft | 478 kts | 282° |
| 2026-05-06 06:24 | 51.32903 | -18.02229 | 38129 ft | 476 kts | 282° |
| 2026-05-06 06:25 | 51.33889 | -18.12631 | 38132 ft | 475 kts | 282° |
| 2026-05-06 06:26 | 51.35354 | -18.28281 | 38129 ft | 474 kts | 282° |
| 2026-05-06 06:26 | 51.36317 | -18.38701 | 38130 ft | 473 kts | 282° |
| 2026-05-06 06:27 | 51.37272 | -18.49129 | 38111 ft | 473 kts | 281° |
| 2026-05-06 06:27 | 51.38214 | -18.59522 | 38132 ft | 472 kts | 281° |
| 2026-05-06 06:28 | 51.39148 | -18.69934 | 38129 ft | 472 kts | 281° |
| 2026-05-06 06:28 | 51.40073 | -18.80352 | 38129 ft | 472 kts | 281° |
| 2026-05-06 06:29 | 51.40988 | -18.90763 | 38129 ft | 472 kts | 281° |
| 2026-05-06 06:29 | 51.41892 | -19.01163 | 38129 ft | 472 kts | 281° |
| 2026-05-06 06:30 | 51.42788 | -19.11586 | 38129 ft | 471 kts | 281° |
| 2026-05-06 06:30 | 51.43672 | -19.21977 | 38130 ft | 470 kts | 281° |
| 2026-05-06 06:31 | 51.44545 | -19.32343 | 38132 ft | 469 kts | 281° |
| 2026-05-06 06:31 | 51.45410 | -19.42737 | 38132 ft | 470 kts | 281° |
| 2026-05-06 06:32 | 51.46265 | -19.53116 | 38131 ft | 470 kts | 280° |
| 2026-05-06 06:32 | 51.47111 | -19.63493 | 38128 ft | 469 kts | 280° |
| 2026-05-06 06:33 | 51.47945 | -19.73854 | 38123 ft | 469 kts | 280° |
| 2026-05-06 06:33 | 51.48770 | -19.84220 | 38126 ft | 468 kts | 280° |
| 2026-05-06 06:34 | 51.49586 | -19.94594 | 38129 ft | 468 kts | 280° |
| 2026-05-06 06:34 | 51.50357 | -20.04995 | 38125 ft | 469 kts | 278° |
| 2026-05-06 06:35 | 51.50783 | -20.15454 | 38122 ft | 470 kts | 276° |
| 2026-05-06 06:35 | 51.51121 | -20.25906 | 38121 ft | 469 kts | 276° |
| 2026-05-06 06:36 | 51.51499 | -20.36367 | 38126 ft | 469 kts | 276° |
| 2026-05-06 06:36 | 51.51900 | -20.46755 | 38128 ft | 469 kts | 276° |
| 2026-05-06 06:37 | 51.52302 | -20.57206 | 38130 ft | 469 kts | 276° |
| 2026-05-06 06:37 | 51.52694 | -20.67653 | 38123 ft | 469 kts | 276° |
| 2026-05-06 06:38 | 51.53074 | -20.78068 | 38129 ft | 468 kts | 276° |
| 2026-05-06 06:38 | 51.53444 | -20.88514 | 38129 ft | 468 kts | 276° |
| 2026-05-06 06:39 | 51.53804 | -20.98932 | 38132 ft | 468 kts | 275° |
| 2026-05-06 06:39 | 51.54156 | -21.09365 | 38133 ft | 468 kts | 275° |
| 2026-05-06 06:40 | 51.54499 | -21.19804 | 38136 ft | 468 kts | 275° |
| 2026-05-06 06:40 | 51.54832 | -21.30236 | 38143 ft | 467 kts | 275° |
| 2026-05-06 06:41 | 51.55155 | -21.40654 | 38144 ft | 467 kts | 275° |
| 2026-05-06 06:41 | 51.55469 | -21.51083 | 38120 ft | 467 kts | 275° |
| 2026-05-06 06:42 | 51.55774 | -21.61512 | 38141 ft | 467 kts | 275° |
| 2026-05-06 06:42 | 51.56070 | -21.71933 | 38131 ft | 467 kts | 274° |
| 2026-05-06 06:43 | 51.56357 | -21.82364 | 38140 ft | 467 kts | 274° |
| 2026-05-06 06:43 | 51.56634 | -21.92801 | 38143 ft | 468 kts | 274° |
| 2026-05-06 06:44 | 51.56902 | -22.03243 | 38144 ft | 468 kts | 274° |
| 2026-05-06 06:44 | 51.57161 | -22.13689 | 38144 ft | 468 kts | 274° |
| 2026-05-06 06:45 | 51.57409 | -22.24059 | 38133 ft | 468 kts | 274° |
| 2026-05-06 06:45 | 51.57652 | -22.34588 | 38140 ft | 468 kts | 274° |
| 2026-05-06 06:46 | 51.57881 | -22.44975 | 38143 ft | 468 kts | 273° |
| 2026-05-06 06:46 | 51.58104 | -22.55445 | 38146 ft | 468 kts | 273° |
| 2026-05-06 06:47 | 51.58316 | -22.65898 | 38143 ft | 468 kts | 273° |
| 2026-05-06 06:47 | 51.58520 | -22.76382 | 38137 ft | 468 kts | 273° |
| 2026-05-06 06:48 | 51.58715 | -22.86854 | 38145 ft | 469 kts | 272° |
| 2026-05-06 06:48 | 51.58900 | -22.97352 | 38140 ft | 469 kts | 272° |
| 2026-05-06 06:49 | 51.59076 | -23.07851 | 38140 ft | 469 kts | 272° |
| 2026-05-06 06:49 | 51.59243 | -23.18332 | 38144 ft | 470 kts | 272° |
| 2026-05-06 06:50 | 51.59400 | -23.28839 | 38139 ft | 470 kts | 272° |
| 2026-05-06 06:50 | 51.59524 | -23.37542 | 38146 ft | 471 kts | 272° |
| 2026-05-06 06:51 | 51.59665 | -23.48088 | 38142 ft | 471 kts | 272° |
| 2026-05-06 06:51 | 51.59796 | -23.58618 | 38152 ft | 471 kts | 271° |
| 2026-05-06 06:52 | 51.59918 | -23.69159 | 38146 ft | 472 kts | 271° |
| 2026-05-06 06:52 | 51.60031 | -23.79729 | 38142 ft | 472 kts | 271° |
| 2026-05-06 06:53 | 51.60134 | -23.90295 | 38143 ft | 473 kts | 271° |
| 2026-05-06 06:53 | 51.60228 | -24.00873 | 38141 ft | 474 kts | 271° |
| 2026-05-06 06:54 | 51.60312 | -24.11415 | 38146 ft | 474 kts | 271° |
| 2026-05-06 06:54 | 51.60387 | -24.22070 | 38141 ft | 474 kts | 271° |
| 2026-05-06 06:55 | 51.60452 | -24.32669 | 38144 ft | 474 kts | 271° |
| 2026-05-06 06:55 | 51.60508 | -24.43271 | 38147 ft | 473 kts | 270° |
| 2026-05-06 06:56 | 51.60555 | -24.53861 | 38147 ft | 473 kts | 270° |
| 2026-05-06 06:56 | 51.60591 | -24.64416 | 38142 ft | 473 kts | 270° |
| 2026-05-06 06:57 | 51.60619 | -24.75023 | 38146 ft | 473 kts | 270° |
| 2026-05-06 06:57 | 51.60636 | -24.85593 | 38146 ft | 474 kts | 270° |
| 2026-05-06 06:58 | 51.60644 | -24.96198 | 38141 ft | 473 kts | 270° |
| 2026-05-06 06:58 | 51.60643 | -25.06762 | 38143 ft | 472 kts | 269° |
| 2026-05-06 06:59 | 51.60632 | -25.17338 | 38138 ft | 472 kts | 269° |
| 2026-05-06 06:59 | 51.60612 | -25.27911 | 38144 ft | 472 kts | 269° |
| 2026-05-06 07:00 | 51.60582 | -25.38467 | 38144 ft | 472 kts | 269° |
| 2026-05-06 07:00 | 51.60543 | -25.48967 | 38147 ft | 472 kts | 269° |
| 2026-05-06 07:01 | 51.60494 | -25.59596 | 38143 ft | 472 kts | 269° |
| 2026-05-06 07:01 | 51.60436 | -25.70161 | 38138 ft | 472 kts | 269° |
| 2026-05-06 07:02 | 51.60368 | -25.80722 | 38138 ft | 472 kts | 269° |
| 2026-05-06 07:02 | 51.60291 | -25.91286 | 38141 ft | 473 kts | 269° |
| 2026-05-06 07:03 | 51.60205 | -26.01794 | 38135 ft | 473 kts | 269° |
| 2026-05-06 07:03 | 51.60109 | -26.12366 | 38136 ft | 473 kts | 269° |
| 2026-05-06 07:04 | 51.60003 | -26.22920 | 38134 ft | 472 kts | 269° |
| 2026-05-06 07:04 | 51.59888 | -26.33488 | 38133 ft | 473 kts | 268° |
| 2026-05-06 07:05 | 51.59763 | -26.44053 | 38130 ft | 472 kts | 268° |
| 2026-05-06 07:05 | 51.59629 | -26.54627 | 38123 ft | 472 kts | 268° |
| 2026-05-06 07:06 | 51.59486 | -26.65171 | 38120 ft | 472 kts | 268° |
| 2026-05-06 07:06 | 51.59332 | -26.75743 | 38127 ft | 472 kts | 268° |
| 2026-05-06 07:07 | 51.59171 | -26.86245 | 38128 ft | 472 kts | 268° |
| 2026-05-06 07:07 | 51.58999 | -26.96793 | 38136 ft | 472 kts | 268° |
| 2026-05-06 07:08 | 51.58818 | -27.07362 | 38115 ft | 473 kts | 268° |
| 2026-05-06 07:08 | 51.58626 | -27.17946 | 38116 ft | 473 kts | 268° |
| 2026-05-06 07:09 | 51.58426 | -27.28524 | 38113 ft | 473 kts | 268° |
| 2026-05-06 07:09 | 51.58215 | -27.39100 | 38113 ft | 473 kts | 268° |
| 2026-05-06 07:10 | 51.57995 | -27.49684 | 38113 ft | 473 kts | 267° |
| 2026-05-06 07:10 | 51.57767 | -27.60233 | 38113 ft | 473 kts | 267° |
| 2026-05-06 07:11 | 51.57529 | -27.70753 | 38110 ft | 473 kts | 267° |
| 2026-05-06 07:11 | 51.57281 | -27.81310 | 38107 ft | 473 kts | 267° |
| 2026-05-06 07:12 | 51.57024 | -27.91885 | 38095 ft | 473 kts | 267° |
| 2026-05-06 07:12 | 51.56756 | -28.02459 | 38097 ft | 473 kts | 267° |
| 2026-05-06 07:13 | 51.56479 | -28.13059 | 38100 ft | 473 kts | 267° |
| 2026-05-06 07:13 | 51.56194 | -28.23584 | 38094 ft | 474 kts | 267° |
| 2026-05-06 07:14 | 51.55898 | -28.34162 | 38081 ft | 474 kts | 267° |
| 2026-05-06 07:14 | 51.55592 | -28.44734 | 38084 ft | 474 kts | 266° |
| 2026-05-06 07:15 | 51.55277 | -28.55317 | 38083 ft | 474 kts | 266° |
| 2026-05-06 07:15 | 51.54953 | -28.65873 | 38084 ft | 473 kts | 266° |
| 2026-05-06 07:16 | 51.54620 | -28.76427 | 38074 ft | 473 kts | 266° |
| 2026-05-06 07:16 | 51.54277 | -28.86968 | 38075 ft | 472 kts | 266° |
| 2026-05-06 07:17 | 51.53925 | -28.97524 | 38070 ft | 472 kts | 266° |
| 2026-05-06 07:17 | 51.53564 | -29.08050 | 38071 ft | 473 kts | 266° |
| 2026-05-06 07:18 | 51.53193 | -29.18577 | 38065 ft | 472 kts | 266° |
| 2026-05-06 07:18 | 51.52813 | -29.29106 | 38067 ft | 473 kts | 266° |
| 2026-05-06 07:19 | 51.52424 | -29.39634 | 38058 ft | 474 kts | 266° |
| 2026-05-06 07:19 | 51.52023 | -29.50208 | 38055 ft | 474 kts | 266° |
| 2026-05-06 07:20 | 51.51613 | -29.60768 | 38054 ft | 474 kts | 266° |
| 2026-05-06 07:20 | 51.51194 | -29.71336 | 38054 ft | 474 kts | 266° |
| 2026-05-06 07:21 | 51.50765 | -29.81891 | 38054 ft | 474 kts | 266° |
| 2026-05-06 07:21 | 51.50330 | -29.92364 | 38053 ft | 474 kts | 266° |
| 2026-05-06 07:22 | 51.49893 | -30.02919 | 38051 ft | 474 kts | 266° |
| 2026-05-06 07:22 | 51.49763 | -30.13505 | 38050 ft | 474 kts | 269° |
| 2026-05-06 07:23 | 51.49761 | -30.24075 | 38049 ft | 474 kts | 269° |
| 2026-05-06 07:23 | 51.49708 | -30.34677 | 38061 ft | 474 kts | 269° |
| 2026-05-06 07:24 | 51.49606 | -30.45261 | 38051 ft | 475 kts | 269° |
| 2026-05-06 07:24 | 51.49482 | -30.55874 | 38049 ft | 476 kts | 268° |
| 2026-05-06 07:25 | 51.49349 | -30.66474 | 38053 ft | 476 kts | 268° |
| 2026-05-06 07:25 | 51.49208 | -30.77098 | 38062 ft | 476 kts | 268° |
| 2026-05-06 07:26 | 51.49059 | -30.87718 | 38058 ft | 476 kts | 268° |
| 2026-05-06 07:26 | 51.48900 | -30.98307 | 38058 ft | 476 kts | 268° |
| 2026-05-06 07:27 | 51.48731 | -31.08912 | 38067 ft | 476 kts | 268° |
| 2026-05-06 07:27 | 51.48553 | -31.19534 | 38067 ft | 476 kts | 268° |
| 2026-05-06 07:28 | 51.48365 | -31.30141 | 38076 ft | 476 kts | 268° |
| 2026-05-06 07:28 | 51.48067 | -31.45987 | 38076 ft | 473 kts | 268° |
| 2026-05-06 07:29 | 51.47856 | -31.56523 | 38079 ft | 472 kts | 268° |
| 2026-05-06 07:29 | 51.47637 | -31.67056 | 38078 ft | 472 kts | 268° |
| 2026-05-06 07:30 | 51.47407 | -31.77581 | 38093 ft | 472 kts | 268° |
| 2026-05-06 07:30 | 51.47168 | -31.88121 | 38093 ft | 472 kts | 268° |
| 2026-05-06 07:31 | 51.46922 | -31.98559 | 38100 ft | 473 kts | 267° |
| 2026-05-06 07:31 | 51.46665 | -32.09088 | 38097 ft | 472 kts | 267° |
| 2026-05-06 07:32 | 51.46398 | -32.19613 | 38110 ft | 473 kts | 267° |
| 2026-05-06 07:32 | 51.46122 | -32.30142 | 38106 ft | 472 kts | 267° |
| 2026-05-06 07:33 | 51.45836 | -32.40672 | 38114 ft | 473 kts | 267° |
| 2026-05-06 07:33 | 51.45541 | -32.51206 | 38114 ft | 473 kts | 267° |
| 2026-05-06 07:34 | 51.45236 | -32.61733 | 38119 ft | 473 kts | 267° |
| 2026-05-06 07:34 | 51.44921 | -32.72269 | 38118 ft | 473 kts | 267° |
| 2026-05-06 07:35 | 51.44598 | -32.82793 | 38125 ft | 473 kts | 267° |
| 2026-05-06 07:35 | 51.44265 | -32.93315 | 38124 ft | 473 kts | 267° |
| 2026-05-06 07:36 | 51.43921 | -33.03867 | 38121 ft | 474 kts | 267° |
| 2026-05-06 07:36 | 51.43570 | -33.14377 | 38124 ft | 474 kts | 266° |
| 2026-05-06 07:37 | 51.43208 | -33.24925 | 38130 ft | 474 kts | 266° |
| 2026-05-06 07:37 | 51.42899 | -33.33693 | 38127 ft | 475 kts | 266° |
| 2026-05-06 07:38 | 51.42519 | -33.44269 | 38129 ft | 476 kts | 266° |
| 2026-05-06 07:38 | 51.42128 | -33.54839 | 38129 ft | 475 kts | 266° |
| 2026-05-06 07:39 | 51.41728 | -33.65418 | 38132 ft | 475 kts | 266° |
| 2026-05-06 07:39 | 51.41320 | -33.75957 | 38135 ft | 475 kts | 266° |
| 2026-05-06 07:40 | 51.40901 | -33.86541 | 38135 ft | 475 kts | 266° |
| 2026-05-06 07:40 | 51.40473 | -33.97103 | 38138 ft | 475 kts | 266° |
| 2026-05-06 07:41 | 51.40035 | -34.07665 | 38138 ft | 475 kts | 266° |
| 2026-05-06 07:41 | 51.39589 | -34.18200 | 38140 ft | 475 kts | 266° |
| 2026-05-06 07:42 | 51.39133 | -34.28754 | 38144 ft | 475 kts | 266° |
| 2026-05-06 07:42 | 51.38667 | -34.39310 | 38143 ft | 475 kts | 266° |
| 2026-05-06 07:43 | 51.38195 | -34.49786 | 38143 ft | 475 kts | 266° |
| 2026-05-06 07:43 | 51.37712 | -34.60291 | 38142 ft | 475 kts | 266° |
| 2026-05-06 07:44 | 51.37218 | -34.70830 | 38143 ft | 475 kts | 266° |
| 2026-05-06 07:44 | 51.36715 | -34.81358 | 38146 ft | 474 kts | 266° |
| 2026-05-06 07:45 | 51.36206 | -34.91825 | 38149 ft | 474 kts | 266° |
| 2026-05-06 07:45 | 51.35680 | -35.02416 | 38151 ft | 474 kts | 265° |
| 2026-05-06 07:46 | 51.35154 | -35.12849 | 38149 ft | 474 kts | 266° |
| 2026-05-06 07:46 | 51.34612 | -35.23379 | 38156 ft | 474 kts | 265° |
| 2026-05-06 07:47 | 51.34063 | -35.33872 | 38146 ft | 474 kts | 265° |
| 2026-05-06 07:47 | 51.33504 | -35.44384 | 38146 ft | 474 kts | 265° |
| 2026-05-06 07:48 | 51.32935 | -35.54899 | 38146 ft | 474 kts | 265° |
| 2026-05-06 07:48 | 51.32356 | -35.65424 | 38143 ft | 474 kts | 265° |
| 2026-05-06 07:49 | 51.31769 | -35.75912 | 38146 ft | 474 kts | 265° |
| 2026-05-06 07:49 | 51.31173 | -35.86391 | 38146 ft | 473 kts | 265° |
| 2026-05-06 07:50 | 51.30569 | -35.96859 | 38146 ft | 473 kts | 265° |
| 2026-05-06 07:50 | 51.29955 | -36.07331 | 38146 ft | 473 kts | 265° |
| 2026-05-06 07:51 | 51.29331 | -36.17797 | 38146 ft | 473 kts | 265° |
| 2026-05-06 07:51 | 51.28698 | -36.28267 | 38146 ft | 474 kts | 265° |
| 2026-05-06 07:52 | 51.28056 | -36.38736 | 38143 ft | 474 kts | 265° |
| 2026-05-06 07:52 | 51.27406 | -36.49165 | 38143 ft | 474 kts | 265° |
| 2026-05-06 07:53 | 51.26741 | -36.59698 | 38145 ft | 475 kts | 265° |
| 2026-05-06 07:53 | 51.26068 | -36.70197 | 38143 ft | 475 kts | 265° |
| 2026-05-06 07:54 | 51.25387 | -36.80657 | 38140 ft | 474 kts | 265° |
| 2026-05-06 07:54 | 51.24696 | -36.91139 | 38140 ft | 474 kts | 265° |
| 2026-05-06 07:55 | 51.23997 | -37.01594 | 38143 ft | 474 kts | 265° |
| 2026-05-06 07:55 | 51.23289 | -37.12047 | 38143 ft | 474 kts | 264° |
| 2026-05-06 07:56 | 51.22572 | -37.22491 | 38144 ft | 474 kts | 264° |
| 2026-05-06 07:56 | 51.21844 | -37.32947 | 38142 ft | 474 kts | 264° |
| 2026-05-06 07:57 | 51.21108 | -37.43388 | 38140 ft | 474 kts | 264° |
| 2026-05-06 07:57 | 51.20361 | -37.53849 | 38140 ft | 474 kts | 264° |
| 2026-05-06 07:58 | 51.19612 | -37.64201 | 38140 ft | 474 kts | 264° |
| 2026-05-06 07:58 | 51.18848 | -37.74637 | 38140 ft | 474 kts | 264° |
| 2026-05-06 07:59 | 51.18070 | -37.85133 | 38138 ft | 474 kts | 264° |
| 2026-05-06 07:59 | 51.17288 | -37.95539 | 38140 ft | 473 kts | 264° |
| 2026-05-06 08:00 | 51.16504 | -38.05857 | 38143 ft | 473 kts | 264° |
| 2026-05-06 08:00 | 51.15697 | -38.16348 | 38146 ft | 473 kts | 264° |
| 2026-05-06 08:01 | 51.14896 | -38.26658 | 38143 ft | 474 kts | 264° |
| 2026-05-06 08:01 | 51.14076 | -38.37079 | 38131 ft | 474 kts | 264° |
| 2026-05-06 08:02 | 51.13247 | -38.47485 | 38143 ft | 473 kts | 264° |
| 2026-05-06 08:02 | 51.12411 | -38.57856 | 38143 ft | 473 kts | 264° |
| 2026-05-06 08:03 | 51.11567 | -38.68222 | 38143 ft | 473 kts | 264° |
| 2026-05-06 08:03 | 51.10712 | -38.78603 | 38140 ft | 473 kts | 264° |
| 2026-05-06 08:04 | 51.09850 | -38.88960 | 38143 ft | 473 kts | 263° |
| 2026-05-06 08:04 | 51.08978 | -38.99310 | 38143 ft | 472 kts | 263° |
| 2026-05-06 08:05 | 51.08099 | -39.09634 | 38153 ft | 471 kts | 263° |
| 2026-05-06 08:05 | 51.07209 | -39.19984 | 38151 ft | 472 kts | 263° |
| 2026-05-06 08:06 | 51.06310 | -39.30320 | 38151 ft | 472 kts | 263° |
| 2026-05-06 08:06 | 51.05401 | -39.40664 | 38154 ft | 472 kts | 263° |
| 2026-05-06 08:07 | 51.04485 | -39.50988 | 38151 ft | 472 kts | 263° |
| 2026-05-06 08:07 | 51.03560 | -39.61300 | 38151 ft | 471 kts | 263° |
| 2026-05-06 08:08 | 51.02627 | -39.71600 | 38151 ft | 471 kts | 263° |
| 2026-05-06 08:08 | 51.01684 | -39.81899 | 38154 ft | 471 kts | 263° |
| 2026-05-06 08:09 | 51.00731 | -39.92205 | 38151 ft | 471 kts | 263° |
| 2026-05-06 08:09 | 50.99473 | -40.02407 | 38165 ft | 473 kts | 256° |
| 2026-05-06 08:10 | 50.97598 | -40.12404 | 38157 ft | 473 kts | 255° |
| 2026-05-06 08:10 | 50.95621 | -40.22365 | 38159 ft | 474 kts | 255° |
| 2026-05-06 08:11 | 50.93637 | -40.32269 | 38156 ft | 474 kts | 255° |
| 2026-05-06 08:11 | 50.91650 | -40.42193 | 38159 ft | 474 kts | 255° |
| 2026-05-06 08:12 | 50.89652 | -40.52146 | 38156 ft | 473 kts | 255° |
| 2026-05-06 08:12 | 50.87651 | -40.62075 | 38157 ft | 473 kts | 255° |
| 2026-05-06 08:13 | 50.85643 | -40.71988 | 38156 ft | 473 kts | 255° |
| 2026-05-06 08:13 | 50.83616 | -40.81941 | 38156 ft | 473 kts | 255° |
| 2026-05-06 08:14 | 50.81599 | -40.91792 | 38146 ft | 472 kts | 255° |
| 2026-05-06 08:14 | 50.79576 | -41.01624 | 38157 ft | 470 kts | 255° |
| 2026-05-06 08:15 | 50.77545 | -41.11446 | 38158 ft | 470 kts | 255° |
| 2026-05-06 08:15 | 50.75509 | -41.21246 | 38155 ft | 470 kts | 255° |
| 2026-05-06 08:16 | 50.73464 | -41.31044 | 38155 ft | 470 kts | 255° |
| 2026-05-06 08:16 | 50.71414 | -41.40815 | 38155 ft | 470 kts | 254° |
| 2026-05-06 08:17 | 50.69345 | -41.50631 | 38149 ft | 470 kts | 254° |
| 2026-05-06 08:17 | 50.67279 | -41.60382 | 38150 ft | 470 kts | 254° |
| 2026-05-06 08:18 | 50.65198 | -41.70158 | 38153 ft | 470 kts | 254° |
| 2026-05-06 08:18 | 50.63108 | -41.79930 | 38136 ft | 470 kts | 254° |
| 2026-05-06 08:19 | 50.61018 | -41.89654 | 38149 ft | 469 kts | 254° |
| 2026-05-06 08:19 | 50.58917 | -41.99380 | 38167 ft | 469 kts | 254° |
| 2026-05-06 08:20 | 50.56816 | -42.09066 | 38164 ft | 469 kts | 254° |
| 2026-05-06 08:20 | 50.54697 | -42.18783 | 38154 ft | 469 kts | 253° |
| 2026-05-06 08:21 | 50.52574 | -42.28479 | 38147 ft | 469 kts | 253° |
| 2026-05-06 08:21 | 50.50442 | -42.38167 | 38156 ft | 470 kts | 253° |
| 2026-05-06 08:22 | 50.48664 | -42.46211 | 38156 ft | 470 kts | 253° |
| 2026-05-06 08:22 | 50.46515 | -42.55893 | 38152 ft | 470 kts | 253° |
| 2026-05-06 08:23 | 50.44001 | -42.67164 | 38156 ft | 470 kts | 253° |
| 2026-05-06 08:23 | 50.42192 | -42.75236 | 38151 ft | 469 kts | 253° |
| 2026-05-06 08:24 | 50.40016 | -42.84903 | 38154 ft | 469 kts | 253° |
| 2026-05-06 08:24 | 50.37841 | -42.94524 | 38154 ft | 469 kts | 253° |
| 2026-05-06 08:25 | 50.35649 | -43.04181 | 38163 ft | 469 kts | 253° |
| 2026-05-06 08:25 | 50.33459 | -43.13776 | 38138 ft | 469 kts | 253° |
| 2026-05-06 08:26 | 50.31256 | -43.23386 | 38157 ft | 467 kts | 253° |
| 2026-05-06 08:26 | 50.29063 | -43.32915 | 38157 ft | 467 kts | 253° |
| 2026-05-06 08:27 | 50.26870 | -43.42400 | 38160 ft | 467 kts | 253° |
| 2026-05-06 08:27 | 50.24643 | -43.51991 | 38159 ft | 467 kts | 253° |
| 2026-05-06 08:28 | 50.22433 | -43.61461 | 38159 ft | 465 kts | 253° |
| 2026-05-06 08:28 | 50.20218 | -43.70911 | 38160 ft | 464 kts | 253° |
| 2026-05-06 08:29 | 50.17996 | -43.80351 | 38165 ft | 464 kts | 253° |
| 2026-05-06 08:29 | 50.15771 | -43.89766 | 38165 ft | 464 kts | 253° |
| 2026-05-06 08:30 | 50.13527 | -43.99220 | 38135 ft | 464 kts | 253° |
| 2026-05-06 08:30 | 50.11286 | -44.08614 | 38174 ft | 461 kts | 253° |
| 2026-05-06 08:31 | 50.09049 | -44.17957 | 38164 ft | 461 kts | 253° |
| 2026-05-06 08:31 | 50.06795 | -44.27333 | 38167 ft | 462 kts | 253° |
| 2026-05-06 08:32 | 50.04535 | -44.36690 | 38168 ft | 462 kts | 253° |
| 2026-05-06 08:32 | 50.02266 | -44.46043 | 38159 ft | 462 kts | 253° |
| 2026-05-06 08:33 | 49.99990 | -44.55385 | 38169 ft | 461 kts | 253° |
| 2026-05-06 08:33 | 49.97716 | -44.64681 | 38174 ft | 461 kts | 253° |
| 2026-05-06 08:34 | 49.94300 | -44.78572 | 38169 ft | 461 kts | 253° |
| 2026-05-06 08:35 | 49.91993 | -44.87906 | 38166 ft | 461 kts | 253° |
| 2026-05-06 08:35 | 49.89703 | -44.97127 | 38173 ft | 460 kts | 253° |
| 2026-05-06 08:36 | 49.87399 | -45.06371 | 38170 ft | 460 kts | 252° |
| 2026-05-06 08:36 | 49.85085 | -45.15619 | 38178 ft | 460 kts | 252° |
| 2026-05-06 08:37 | 49.82764 | -45.24851 | 38172 ft | 460 kts | 252° |
| 2026-05-06 08:37 | 49.80438 | -45.34068 | 38172 ft | 460 kts | 252° |
| 2026-05-06 08:38 | 49.78105 | -45.43271 | 38170 ft | 459 kts | 252° |
| 2026-05-06 08:38 | 49.75766 | -45.52464 | 38173 ft | 459 kts | 252° |
| 2026-05-06 08:39 | 49.73422 | -45.61639 | 38176 ft | 459 kts | 252° |
| 2026-05-06 08:39 | 49.71067 | -45.70821 | 38173 ft | 459 kts | 252° |
| 2026-05-06 08:40 | 49.68707 | -45.79983 | 38175 ft | 459 kts | 252° |
| 2026-05-06 08:40 | 49.66339 | -45.89142 | 38176 ft | 459 kts | 252° |
| 2026-05-06 08:41 | 49.63968 | -45.98272 | 38181 ft | 459 kts | 252° |
| 2026-05-06 08:41 | 49.61588 | -46.07400 | 38181 ft | 459 kts | 252° |
| 2026-05-06 08:42 | 49.59200 | -46.16526 | 38180 ft | 460 kts | 252° |
| 2026-05-06 08:42 | 49.56803 | -46.25650 | 38176 ft | 460 kts | 252° |
| 2026-05-06 08:43 | 49.54390 | -46.34801 | 38181 ft | 460 kts | 252° |
| 2026-05-06 08:43 | 49.51981 | -46.43896 | 38181 ft | 460 kts | 252° |
| 2026-05-06 08:44 | 49.49559 | -46.53003 | 38181 ft | 460 kts | 252° |
| 2026-05-06 08:44 | 49.47125 | -46.62121 | 38181 ft | 461 kts | 252° |
| 2026-05-06 08:45 | 49.44680 | -46.71243 | 38180 ft | 461 kts | 251° |
| 2026-05-06 08:45 | 49.42231 | -46.80340 | 38181 ft | 462 kts | 251° |
| 2026-05-06 08:46 | 49.39782 | -46.89405 | 38181 ft | 462 kts | 251° |
| 2026-05-06 08:46 | 49.37301 | -46.98554 | 38185 ft | 462 kts | 251° |
| 2026-05-06 08:47 | 49.34841 | -47.07587 | 38182 ft | 462 kts | 251° |
| 2026-05-06 08:47 | 49.32358 | -47.16675 | 38173 ft | 462 kts | 251° |
| 2026-05-06 08:48 | 49.29869 | -47.25745 | 38172 ft | 462 kts | 251° |
| 2026-05-06 08:48 | 49.27371 | -47.34816 | 38187 ft | 462 kts | 251° |
| 2026-05-06 08:49 | 49.24866 | -47.43877 | 38178 ft | 461 kts | 251° |
| 2026-05-06 08:49 | 49.22360 | -47.52908 | 38183 ft | 461 kts | 251° |
| 2026-05-06 08:50 | 49.19845 | -47.61936 | 38183 ft | 461 kts | 251° |
| 2026-05-06 08:50 | 49.17325 | -47.70948 | 38178 ft | 461 kts | 251° |
| 2026-05-06 08:51 | 49.14800 | -47.79942 | 38170 ft | 461 kts | 251° |
| 2026-05-06 08:51 | 49.12277 | -47.88895 | 38181 ft | 459 kts | 251° |
| 2026-05-06 08:52 | 49.09744 | -47.97851 | 38182 ft | 459 kts | 251° |
| 2026-05-06 08:52 | 49.07213 | -48.06764 | 38181 ft | 457 kts | 251° |
| 2026-05-06 08:53 | 49.04677 | -48.15663 | 38184 ft | 457 kts | 251° |
| 2026-05-06 08:53 | 49.02144 | -48.24519 | 38180 ft | 455 kts | 251° |
| 2026-05-06 08:54 | 48.99616 | -48.33324 | 38181 ft | 454 kts | 251° |
| 2026-05-06 08:54 | 48.97080 | -48.42128 | 38184 ft | 454 kts | 251° |
| 2026-05-06 08:55 | 48.94529 | -48.50952 | 38184 ft | 454 kts | 251° |
| 2026-05-06 08:55 | 48.91983 | -48.59726 | 38182 ft | 453 kts | 250° |
| 2026-05-06 08:56 | 48.89439 | -48.68452 | 38189 ft | 451 kts | 250° |
| 2026-05-06 08:56 | 48.86888 | -48.77181 | 38178 ft | 451 kts | 250° |
| 2026-05-06 08:57 | 48.84341 | -48.85863 | 38195 ft | 451 kts | 250° |
| 2026-05-06 08:57 | 48.81782 | -48.94557 | 38180 ft | 451 kts | 250° |
| 2026-05-06 08:58 | 48.79220 | -49.03222 | 38185 ft | 450 kts | 250° |
| 2026-05-06 08:58 | 48.76659 | -49.11857 | 38187 ft | 449 kts | 250° |
| 2026-05-06 08:59 | 48.74109 | -49.20429 | 38184 ft | 449 kts | 250° |
| 2026-05-06 08:59 | 48.71537 | -49.29040 | 38182 ft | 448 kts | 250° |
| 2026-05-06 09:00 | 48.68965 | -49.37622 | 38166 ft | 448 kts | 250° |
| 2026-05-06 09:00 | 48.66386 | -49.46198 | 38187 ft | 448 kts | 250° |
| 2026-05-06 09:01 | 48.63802 | -49.54762 | 38185 ft | 448 kts | 250° |
| 2026-05-06 09:01 | 48.61204 | -49.63342 | 38185 ft | 448 kts | 250° |
| 2026-05-06 09:02 | 48.58604 | -49.71895 | 38179 ft | 448 kts | 250° |
| 2026-05-06 09:02 | 48.55999 | -49.80439 | 38181 ft | 448 kts | 250° |
| 2026-05-06 09:03 | 48.53379 | -49.88999 | 38185 ft | 448 kts | 250° |
| 2026-05-06 09:03 | 48.50765 | -49.97519 | 38183 ft | 448 kts | 249° |
| 2026-05-06 09:04 | 48.48506 | -50.06216 | 38182 ft | 446 kts | 254° |
| 2026-05-06 09:04 | 48.46384 | -50.15000 | 38160 ft | 445 kts | 254° |
| 2026-05-06 09:05 | 48.44290 | -50.23737 | 38180 ft | 446 kts | 254° |
| 2026-05-06 09:05 | 48.42173 | -50.32515 | 38184 ft | 446 kts | 254° |
| 2026-05-06 09:06 | 48.40029 | -50.41344 | 38182 ft | 446 kts | 253° |
| 2026-05-06 09:06 | 48.37907 | -50.50037 | 38179 ft | 446 kts | 253° |
| 2026-05-06 09:07 | 48.35760 | -50.58803 | 38170 ft | 446 kts | 253° |
| 2026-05-06 09:07 | 48.33608 | -50.67555 | 38182 ft | 447 kts | 253° |
| 2026-05-06 09:08 | 48.31445 | -50.76318 | 38180 ft | 447 kts | 253° |
| 2026-05-06 09:08 | 48.29280 | -50.85053 | 38176 ft | 447 kts | 253° |
| 2026-05-06 09:09 | 48.27102 | -50.93808 | 38177 ft | 447 kts | 253° |
| 2026-05-06 09:09 | 48.24919 | -51.02546 | 38176 ft | 447 kts | 253° |
| 2026-05-06 09:10 | 48.22733 | -51.11267 | 38178 ft | 447 kts | 253° |
| 2026-05-06 09:10 | 48.20909 | -51.18516 | 38181 ft | 447 kts | 252° |
| 2026-05-06 09:11 | 48.18709 | -51.27226 | 38177 ft | 446 kts | 252° |
| 2026-05-06 09:11 | 48.16510 | -51.35902 | 38176 ft | 445 kts | 252° |
| 2026-05-06 09:12 | 48.14302 | -51.44578 | 38166 ft | 445 kts | 252° |
| 2026-05-06 09:12 | 48.12091 | -51.53235 | 38179 ft | 445 kts | 252° |
| 2026-05-06 09:13 | 48.09877 | -51.61873 | 38167 ft | 445 kts | 252° |
| 2026-05-06 09:13 | 48.07655 | -51.70507 | 38171 ft | 445 kts | 252° |
| 2026-05-06 09:14 | 48.05425 | -51.79137 | 38170 ft | 445 kts | 252° |
| 2026-05-06 09:14 | 48.03194 | -51.87744 | 38170 ft | 445 kts | 252° |
| 2026-05-06 09:15 | 48.00948 | -51.96370 | 38162 ft | 445 kts | 251° |
| 2026-05-06 09:15 | 47.98782 | -52.04987 | 38164 ft | 444 kts | 254° |
| 2026-05-06 09:16 | 47.96963 | -52.13778 | 38190 ft | 443 kts | 256° |
| 2026-05-06 09:16 | 47.95207 | -52.22489 | 38162 ft | 440 kts | 256° |
| 2026-05-06 09:17 | 47.93387 | -52.31205 | 38155 ft | 439 kts | 255° |
| 2026-05-06 09:17 | 47.91535 | -52.39871 | 38162 ft | 439 kts | 255° |
| 2026-05-06 09:18 | 47.89666 | -52.48543 | 38161 ft | 439 kts | 255° |
| 2026-05-06 09:18 | 47.87794 | -52.57200 | 38165 ft | 439 kts | 255° |
| 2026-05-06 09:19 | 47.85906 | -52.65906 | 38156 ft | 439 kts | 255° |
| 2026-05-06 09:19 | 47.84040 | -52.74476 | 38159 ft | 438 kts | 254° |
| 2026-05-06 09:20 | 47.82154 | -52.83102 | 38163 ft | 437 kts | 254° |
| 2026-05-06 09:20 | 47.80265 | -52.91704 | 38176 ft | 437 kts | 254° |
| 2026-05-06 09:21 | 47.78368 | -53.00308 | 38169 ft | 438 kts | 254° |
| 2026-05-06 09:21 | 47.76466 | -53.08899 | 38175 ft | 438 kts | 254° |
| 2026-05-06 09:22 | 47.74557 | -53.17485 | 38165 ft | 438 kts | 253° |
| 2026-05-06 09:22 | 47.72648 | -53.26035 | 38174 ft | 437 kts | 253° |
| 2026-05-06 09:23 | 47.70726 | -53.34612 | 38171 ft | 437 kts | 253° |
| 2026-05-06 09:23 | 47.68804 | -53.43152 | 38186 ft | 437 kts | 253° |
| 2026-05-06 09:24 | 47.66875 | -53.51689 | 38204 ft | 437 kts | 253° |
| 2026-05-06 09:24 | 47.64937 | -53.60234 | 38188 ft | 437 kts | 253° |
| 2026-05-06 09:25 | 47.63016 | -53.68667 | 38192 ft | 438 kts | 253° |
| 2026-05-06 09:25 | 47.61054 | -53.77246 | 38195 ft | 438 kts | 253° |
| 2026-05-06 09:26 | 47.59095 | -53.85783 | 38198 ft | 439 kts | 253° |
| 2026-05-06 09:26 | 47.57125 | -53.94326 | 38198 ft | 439 kts | 253° |
| 2026-05-06 09:27 | 47.55142 | -54.02896 | 38197 ft | 439 kts | 253° |
| 2026-05-06 09:27 | 47.53160 | -54.11425 | 38200 ft | 439 kts | 253° |
| 2026-05-06 09:28 | 47.51172 | -54.19947 | 38202 ft | 439 kts | 253° |
| 2026-05-06 09:28 | 47.49177 | -54.28469 | 38206 ft | 439 kts | 252° |
| 2026-05-06 09:29 | 47.47183 | -54.36948 | 38202 ft | 439 kts | 252° |
| 2026-05-06 09:29 | 47.45160 | -54.45520 | 38266 ft | 440 kts | 252° |
| 2026-05-06 09:29 | 47.44146 | -54.49809 | 38411 ft | 441 kts | 252° |
| 2026-05-06 09:30 | 47.43139 | -54.54052 | 38680 ft | 440 kts | 252° |
| 2026-05-06 09:30 | 47.42129 | -54.58303 | 38931 ft | 438 kts | 252° |
| 2026-05-06 09:30 | 47.41112 | -54.62573 | 39108 ft | 438 kts | 252° |
| 2026-05-06 09:30 | 47.40115 | -54.66752 | 39240 ft | 439 kts | 252° |
| 2026-05-06 09:31 | 47.39099 | -54.70999 | 39370 ft | 439 kts | 252° |
| 2026-05-06 09:31 | 47.38083 | -54.75244 | 39495 ft | 439 kts | 252° |
| 2026-05-06 09:31 | 47.37060 | -54.79509 | 39613 ft | 440 kts | 252° |
| 2026-05-06 09:31 | 47.36040 | -54.83751 | 39751 ft | 440 kts | 252° |
| 2026-05-06 09:32 | 47.35014 | -54.88011 | 39846 ft | 440 kts | 252° |
| 2026-05-06 09:32 | 47.33988 | -54.92266 | 39989 ft | 440 kts | 252° |
| 2026-05-06 09:32 | 47.32964 | -54.96500 | 40098 ft | 440 kts | 251° |
| 2026-05-06 09:33 | 47.30896 | -55.05026 | 40209 ft | 442 kts | 251° |
| 2026-05-06 09:33 | 47.28825 | -55.13532 | 40186 ft | 442 kts | 251° |
| 2026-05-06 09:34 | 47.26739 | -55.22072 | 40184 ft | 442 kts | 251° |
| 2026-05-06 09:34 | 47.24655 | -55.30569 | 40176 ft | 441 kts | 251° |
| 2026-05-06 09:35 | 47.22566 | -55.39055 | 40181 ft | 441 kts | 251° |
| 2026-05-06 09:35 | 47.20481 | -55.47489 | 40167 ft | 441 kts | 251° |
| 2026-05-06 09:36 | 47.18382 | -55.55951 | 40166 ft | 441 kts | 251° |
| 2026-05-06 09:36 | 47.16270 | -55.64433 | 40182 ft | 441 kts | 251° |
| 2026-05-06 09:37 | 47.14153 | -55.72902 | 40153 ft | 441 kts | 250° |
| 2026-05-06 09:37 | 47.12027 | -55.81375 | 40179 ft | 443 kts | 250° |
| 2026-05-06 09:38 | 47.09894 | -55.89846 | 40179 ft | 443 kts | 250° |
| 2026-05-06 09:38 | 47.07752 | -55.98319 | 40199 ft | 443 kts | 250° |
| 2026-05-06 09:39 | 47.05617 | -56.06737 | 40181 ft | 443 kts | 250° |
| 2026-05-06 09:39 | 47.03461 | -56.15205 | 40170 ft | 443 kts | 250° |
| 2026-05-06 09:40 | 47.01293 | -56.23686 | 40188 ft | 446 kts | 250° |
| 2026-05-06 09:40 | 46.98020 | -56.36432 | 40181 ft | 447 kts | 250° |
| 2026-05-06 09:41 | 46.95823 | -56.44949 | 40185 ft | 447 kts | 250° |
| 2026-05-06 09:41 | 46.93625 | -56.53438 | 40178 ft | 447 kts | 250° |
| 2026-05-06 09:42 | 46.91416 | -56.61938 | 40170 ft | 447 kts | 250° |
| 2026-05-06 09:42 | 46.89199 | -56.70441 | 40167 ft | 448 kts | 250° |
| 2026-05-06 09:43 | 46.86980 | -56.78915 | 40176 ft | 448 kts | 249° |
| 2026-05-06 09:43 | 46.84757 | -56.87379 | 40168 ft | 446 kts | 249° |
| 2026-05-06 09:44 | 46.82531 | -56.95817 | 40156 ft | 445 kts | 249° |
| 2026-05-06 09:44 | 46.80295 | -57.04269 | 40157 ft | 447 kts | 249° |
| 2026-05-06 09:45 | 46.78047 | -57.12733 | 40157 ft | 447 kts | 249° |
| 2026-05-06 09:45 | 46.75794 | -57.21186 | 40151 ft | 448 kts | 249° |
| 2026-05-06 09:46 | 46.73528 | -57.29654 | 40151 ft | 448 kts | 249° |
| 2026-05-06 09:46 | 46.71263 | -57.38092 | 40142 ft | 448 kts | 249° |
| 2026-05-06 09:47 | 46.68985 | -57.46548 | 40151 ft | 448 kts | 249° |
| 2026-05-06 09:47 | 46.66704 | -57.54984 | 40147 ft | 447 kts | 249° |
| 2026-05-06 09:48 | 46.64421 | -57.63396 | 40146 ft | 446 kts | 249° |
| 2026-05-06 09:48 | 46.62137 | -57.71783 | 40146 ft | 446 kts | 248° |
| 2026-05-06 09:49 | 46.59849 | -57.80155 | 40132 ft | 446 kts | 248° |
| 2026-05-06 09:49 | 46.57550 | -57.88538 | 40137 ft | 447 kts | 248° |
| 2026-05-06 09:50 | 46.55256 | -57.96875 | 40138 ft | 447 kts | 248° |
| 2026-05-06 09:50 | 46.52944 | -58.05247 | 40138 ft | 447 kts | 248° |
| 2026-05-06 09:51 | 46.50620 | -58.13630 | 40133 ft | 447 kts | 248° |
| 2026-05-06 09:51 | 46.48294 | -58.21994 | 40132 ft | 447 kts | 248° |
| 2026-05-06 09:52 | 46.45965 | -58.30340 | 40141 ft | 446 kts | 248° |
| 2026-05-06 09:52 | 46.43635 | -58.38662 | 40124 ft | 446 kts | 248° |
| 2026-05-06 09:53 | 46.41294 | -58.46993 | 40132 ft | 446 kts | 248° |
| 2026-05-06 09:53 | 46.38949 | -58.55307 | 40132 ft | 446 kts | 248° |
| 2026-05-06 09:54 | 46.36599 | -58.63615 | 40136 ft | 446 kts | 248° |
| 2026-05-06 09:54 | 46.34238 | -58.71931 | 40127 ft | 446 kts | 248° |
| 2026-05-06 09:55 | 46.31875 | -58.80228 | 40129 ft | 446 kts | 248° |
| 2026-05-06 09:55 | 46.29508 | -58.88507 | 40129 ft | 446 kts | 248° |
| 2026-05-06 09:56 | 46.27131 | -58.96795 | 40129 ft | 446 kts | 247° |
| 2026-05-06 09:56 | 46.24751 | -59.05064 | 40120 ft | 446 kts | 247° |
| 2026-05-06 09:57 | 46.22365 | -59.13328 | 40125 ft | 446 kts | 247° |
| 2026-05-06 09:57 | 46.19972 | -59.21585 | 40123 ft | 446 kts | 247° |
| 2026-05-06 09:58 | 46.17576 | -59.29827 | 40120 ft | 446 kts | 247° |
| 2026-05-06 09:58 | 46.15581 | -59.36671 | 40120 ft | 446 kts | 247° |
| 2026-05-06 09:59 | 46.12775 | -59.46261 | 40122 ft | 447 kts | 247° |
| 2026-05-06 09:59 | 46.10752 | -59.53152 | 40108 ft | 447 kts | 247° |
| 2026-05-06 10:00 | 46.08320 | -59.61414 | 40115 ft | 447 kts | 247° |
| 2026-05-06 10:00 | 46.05891 | -59.69635 | 40124 ft | 447 kts | 247° |
| 2026-05-06 10:01 | 46.03453 | -59.77862 | 40104 ft | 447 kts | 247° |
| 2026-05-06 10:01 | 46.01003 | -59.86099 | 40113 ft | 448 kts | 246° |
| 2026-05-06 10:02 | 45.98546 | -59.94335 | 40114 ft | 448 kts | 246° |
| 2026-05-06 10:02 | 45.96107 | -60.02485 | 40076 ft | 448 kts | 246° |
| 2026-05-06 10:03 | 45.93627 | -60.10742 | 40079 ft | 448 kts | 246° |
| 2026-05-06 10:03 | 45.91146 | -60.18977 | 40088 ft | 448 kts | 246° |
| 2026-05-06 10:04 | 45.88668 | -60.27174 | 40105 ft | 449 kts | 246° |
| 2026-05-06 10:04 | 45.86175 | -60.35393 | 40127 ft | 449 kts | 246° |
| 2026-05-06 10:05 | 45.83680 | -60.43595 | 40108 ft | 449 kts | 246° |
| 2026-05-06 10:05 | 45.81176 | -60.51796 | 40108 ft | 449 kts | 246° |
| 2026-05-06 10:06 | 45.78661 | -60.60010 | 40107 ft | 449 kts | 246° |
| 2026-05-06 10:06 | 45.76147 | -60.68192 | 40098 ft | 449 kts | 246° |
| 2026-05-06 10:07 | 45.73625 | -60.76373 | 40094 ft | 449 kts | 246° |
| 2026-05-06 10:07 | 45.71102 | -60.84534 | 40094 ft | 449 kts | 246° |
| 2026-05-06 10:08 | 45.68562 | -60.92720 | 40080 ft | 449 kts | 246° |
| 2026-05-06 10:08 | 45.66022 | -61.00882 | 40089 ft | 449 kts | 246° |
| 2026-05-06 10:09 | 45.63480 | -61.09024 | 40094 ft | 449 kts | 246° |
| 2026-05-06 10:09 | 45.60929 | -61.17170 | 40093 ft | 449 kts | 245° |
| 2026-05-06 10:10 | 45.58367 | -61.25323 | 40091 ft | 449 kts | 245° |
| 2026-05-06 10:10 | 45.55819 | -61.33408 | 40089 ft | 449 kts | 245° |
| 2026-05-06 10:11 | 45.53280 | -61.41437 | 40092 ft | 448 kts | 245° |
| 2026-05-06 10:11 | 45.50700 | -61.49571 | 40094 ft | 448 kts | 245° |
| 2026-05-06 10:12 | 45.48114 | -61.57698 | 40099 ft | 448 kts | 245° |
| 2026-05-06 10:12 | 45.45548 | -61.65739 | 40100 ft | 448 kts | 245° |
| 2026-05-06 10:13 | 45.42958 | -61.73827 | 40106 ft | 448 kts | 245° |
| 2026-05-06 10:13 | 45.40373 | -61.81877 | 40105 ft | 447 kts | 245° |
| 2026-05-06 10:14 | 45.37787 | -61.89905 | 40106 ft | 447 kts | 245° |
| 2026-05-06 10:14 | 45.35180 | -61.97972 | 40116 ft | 447 kts | 245° |
| 2026-05-06 10:15 | 45.32586 | -62.05975 | 40108 ft | 447 kts | 245° |
| 2026-05-06 10:15 | 45.29978 | -62.13995 | 40118 ft | 447 kts | 245° |
| 2026-05-06 10:16 | 45.27363 | -62.22013 | 40116 ft | 447 kts | 245° |
| 2026-05-06 10:16 | 45.24757 | -62.29978 | 40116 ft | 447 kts | 245° |
| 2026-05-06 10:17 | 45.22121 | -62.38012 | 40119 ft | 447 kts | 245° |
| 2026-05-06 10:17 | 45.19493 | -62.45993 | 40121 ft | 446 kts | 245° |
| 2026-05-06 10:18 | 45.16884 | -62.53896 | 40113 ft | 445 kts | 245° |
| 2026-05-06 10:18 | 45.14272 | -62.61784 | 40116 ft | 445 kts | 245° |
| 2026-05-06 10:19 | 45.11669 | -62.69622 | 40116 ft | 445 kts | 245° |
| 2026-05-06 10:19 | 45.08996 | -62.77646 | 40124 ft | 445 kts | 245° |
| 2026-05-06 10:20 | 45.06345 | -62.85579 | 40113 ft | 446 kts | 245° |
| 2026-05-06 10:20 | 45.03704 | -62.93459 | 40118 ft | 446 kts | 245° |
| 2026-05-06 10:21 | 45.01038 | -63.01390 | 40125 ft | 446 kts | 245° |
| 2026-05-06 10:21 | 44.98370 | -63.09302 | 40107 ft | 446 kts | 245° |
| 2026-05-06 10:22 | 44.95694 | -63.17216 | 40091 ft | 446 kts | 245° |
| 2026-05-06 10:22 | 44.93011 | -63.25129 | 40094 ft | 448 kts | 245° |
| 2026-05-06 10:23 | 44.90315 | -63.33055 | 40085 ft | 448 kts | 245° |
| 2026-05-06 10:23 | 44.87616 | -63.40965 | 40082 ft | 448 kts | 245° |
| 2026-05-06 10:24 | 44.84914 | -63.48860 | 40082 ft | 448 kts | 245° |
| 2026-05-06 10:24 | 44.82189 | -63.56801 | 40082 ft | 449 kts | 245° |
| 2026-05-06 10:25 | 44.79467 | -63.64708 | 40085 ft | 449 kts | 245° |
| 2026-05-06 10:25 | 44.76741 | -63.72604 | 40090 ft | 448 kts | 245° |
| 2026-05-06 10:26 | 44.74021 | -63.80458 | 40093 ft | 445 kts | 245° |
| 2026-05-06 10:26 | 44.71359 | -63.88124 | 40076 ft | 445 kts | 245° |
| 2026-05-06 10:27 | 44.68637 | -63.95940 | 40084 ft | 445 kts | 245° |
| 2026-05-06 10:27 | 44.65906 | -64.03761 | 40084 ft | 445 kts | 245° |
| 2026-05-06 10:28 | 44.63175 | -64.11558 | 40070 ft | 445 kts | 245° |
| 2026-05-06 10:28 | 44.60433 | -64.19363 | 40070 ft | 445 kts | 245° |
| 2026-05-06 10:29 | 44.57687 | -64.27158 | 40071 ft | 445 kts | 245° |
| 2026-05-06 10:29 | 44.54951 | -64.34901 | 40063 ft | 443 kts | 245° |
| 2026-05-06 10:30 | 44.52218 | -64.42616 | 40059 ft | 441 kts | 245° |
| 2026-05-06 10:30 | 44.49500 | -64.50265 | 40064 ft | 441 kts | 245° |
| 2026-05-06 10:31 | 44.46764 | -64.57946 | 40050 ft | 441 kts | 245° |
| 2026-05-06 10:31 | 44.44027 | -64.65605 | 40062 ft | 441 kts | 245° |
| 2026-05-06 10:32 | 44.41274 | -64.73289 | 40070 ft | 441 kts | 245° |
| 2026-05-06 10:32 | 44.38526 | -64.80936 | 40069 ft | 441 kts | 245° |
| 2026-05-06 10:33 | 44.35766 | -64.88593 | 40075 ft | 441 kts | 245° |
| 2026-05-06 10:33 | 44.33015 | -64.96208 | 40076 ft | 441 kts | 244° |
| 2026-05-06 10:34 | 44.30241 | -65.03866 | 40083 ft | 440 kts | 244° |
| 2026-05-06 10:34 | 44.27471 | -65.11488 | 40069 ft | 440 kts | 244° |
| 2026-05-06 10:35 | 44.25169 | -65.17807 | 40074 ft | 440 kts | 244° |
| 2026-05-06 10:35 | 44.21922 | -65.26697 | 40061 ft | 440 kts | 244° |
| 2026-05-06 10:36 | 44.19148 | -65.34267 | 40066 ft | 440 kts | 244° |
| 2026-05-06 10:36 | 44.16345 | -65.41898 | 40068 ft | 440 kts | 244° |
| 2026-05-06 10:37 | 44.13561 | -65.49453 | 40071 ft | 441 kts | 244° |
| 2026-05-06 10:37 | 44.10761 | -65.57032 | 40076 ft | 441 kts | 244° |
| 2026-05-06 10:38 | 44.07953 | -65.64615 | 40068 ft | 442 kts | 244° |
| 2026-05-06 10:38 | 44.05129 | -65.72220 | 40066 ft | 442 kts | 244° |
| 2026-05-06 10:39 | 44.02299 | -65.79816 | 40069 ft | 442 kts | 243° |
| 2026-05-06 10:39 | 43.99469 | -65.87395 | 40057 ft | 443 kts | 243° |
| 2026-05-06 10:40 | 43.96621 | -65.94998 | 40040 ft | 443 kts | 244° |
| 2026-05-06 10:40 | 43.93789 | -66.02539 | 40053 ft | 443 kts | 244° |
| 2026-05-06 10:41 | 43.90934 | -66.10122 | 40053 ft | 442 kts | 244° |
| 2026-05-06 10:41 | 43.88076 | -66.17693 | 40056 ft | 442 kts | 244° |
| 2026-05-06 10:42 | 43.85212 | -66.25257 | 40052 ft | 443 kts | 244° |
| 2026-05-06 10:42 | 43.82350 | -66.32798 | 40045 ft | 443 kts | 244° |
| 2026-05-06 10:43 | 43.79491 | -66.40310 | 40045 ft | 443 kts | 244° |
| 2026-05-06 10:44 | 43.75172 | -66.51618 | 40044 ft | 443 kts | 244° |
| 2026-05-06 10:44 | 43.72290 | -66.59142 | 40034 ft | 443 kts | 244° |
| 2026-05-06 10:45 | 43.69407 | -66.66644 | 40036 ft | 444 kts | 244° |
| 2026-05-06 10:45 | 43.66493 | -66.74209 | 40046 ft | 444 kts | 244° |
| 2026-05-06 10:46 | 43.63592 | -66.81721 | 40031 ft | 445 kts | 244° |
| 2026-05-06 10:46 | 43.60676 | -66.89250 | 40036 ft | 445 kts | 244° |
| 2026-05-06 10:47 | 43.58238 | -66.95529 | 40020 ft | 445 kts | 244° |
| 2026-05-06 10:47 | 43.55607 | -67.03246 | 40020 ft | 444 kts | 250° |
| 2026-05-06 10:48 | 43.53359 | -67.11148 | 40024 ft | 444 kts | 251° |
| 2026-05-06 10:48 | 43.51145 | -67.19111 | 40022 ft | 444 kts | 251° |
| 2026-05-06 10:49 | 43.48926 | -67.27055 | 40009 ft | 444 kts | 251° |
| 2026-05-06 10:49 | 43.46692 | -67.34993 | 40027 ft | 444 kts | 251° |
| 2026-05-06 10:50 | 43.44449 | -67.42922 | 40022 ft | 444 kts | 251° |
| 2026-05-06 10:50 | 43.42203 | -67.50838 | 40020 ft | 444 kts | 251° |
| 2026-05-06 10:51 | 43.39954 | -67.58740 | 40017 ft | 444 kts | 251° |
| 2026-05-06 10:51 | 43.37694 | -67.66656 | 40004 ft | 444 kts | 251° |
| 2026-05-06 10:52 | 43.35439 | -67.74531 | 40010 ft | 444 kts | 251° |
| 2026-05-06 10:52 | 43.33163 | -67.82453 | 40027 ft | 444 kts | 251° |
| 2026-05-06 10:53 | 43.30896 | -67.90317 | 40010 ft | 442 kts | 251° |
| 2026-05-06 10:53 | 43.28644 | -67.98107 | 40012 ft | 441 kts | 251° |
| 2026-05-06 10:54 | 43.26377 | -68.05928 | 40006 ft | 441 kts | 251° |
| 2026-05-06 10:54 | 43.24104 | -68.13744 | 39989 ft | 441 kts | 251° |
| 2026-05-06 10:55 | 43.21824 | -68.21559 | 40006 ft | 442 kts | 251° |
| 2026-05-06 10:55 | 43.19536 | -68.29376 | 39999 ft | 442 kts | 251° |
| 2026-05-06 10:56 | 43.17246 | -68.37176 | 40002 ft | 441 kts | 251° |
| 2026-05-06 10:56 | 43.14954 | -68.44958 | 39993 ft | 440 kts | 251° |
| 2026-05-06 10:57 | 43.12655 | -68.52743 | 39978 ft | 440 kts | 251° |
| 2026-05-06 10:57 | 43.10354 | -68.60510 | 39996 ft | 441 kts | 251° |
| 2026-05-06 10:58 | 43.08042 | -68.68293 | 39985 ft | 441 kts | 251° |
| 2026-05-06 10:58 | 43.05731 | -68.76046 | 39990 ft | 441 kts | 251° |
| 2026-05-06 10:59 | 43.03407 | -68.83820 | 39993 ft | 441 kts | 251° |
| 2026-05-06 10:59 | 43.01081 | -68.91575 | 39973 ft | 441 kts | 251° |
| 2026-05-06 11:00 | 42.98745 | -68.99342 | 39977 ft | 442 kts | 251° |
| 2026-05-06 11:00 | 42.96409 | -69.07085 | 39979 ft | 442 kts | 251° |
| 2026-05-06 11:01 | 42.94061 | -69.14845 | 39645 ft | 441 kts | 251° |
| 2026-05-06 11:01 | 42.92889 | -69.18712 | 39426 ft | 441 kts | 251° |
| 2026-05-06 11:01 | 42.91718 | -69.22529 | 38814 ft | 442 kts | 250° |
| 2026-05-06 11:01 | 42.90520 | -69.26408 | 37775 ft | 448 kts | 250° |
| 2026-05-06 11:02 | 42.89289 | -69.30386 | 36884 ft | 450 kts | 250° |
| 2026-05-06 11:02 | 42.88079 | -69.34293 | 35871 ft | 444 kts | 250° |
| 2026-05-06 11:02 | 42.86895 | -69.38110 | 34614 ft | 443 kts | 250° |
| 2026-05-06 11:02 | 42.85701 | -69.41961 | 33206 ft | 442 kts | 250° |
| 2026-05-06 11:03 | 42.84522 | -69.45764 | 31698 ft | 442 kts | 250° |
| 2026-05-06 11:03 | 42.83325 | -69.49616 | 30252 ft | 441 kts | 249° |
| 2026-05-06 11:03 | 42.82127 | -69.53465 | 28766 ft | 438 kts | 249° |
| 2026-05-06 11:03 | 42.80957 | -69.57222 | 27498 ft | 431 kts | 248° |
| 2026-05-06 11:04 | 42.79784 | -69.60977 | 26169 ft | 425 kts | 248° |
| 2026-05-06 11:04 | 42.78630 | -69.64672 | 24836 ft | 421 kts | 248° |
| 2026-05-06 11:04 | 42.77487 | -69.68323 | 23615 ft | 415 kts | 248° |
| 2026-05-06 11:04 | 42.76367 | -69.71900 | 22201 ft | 411 kts | 247° |
| 2026-05-06 11:05 | 42.75256 | -69.75439 | 20982 ft | 402 kts | 247° |
| 2026-05-06 11:05 | 42.74154 | -69.78947 | 20117 ft | 401 kts | 247° |
| 2026-05-06 11:05 | 42.73071 | -69.82391 | 19599 ft | 393 kts | 246° |
| 2026-05-06 11:05 | 42.71999 | -69.85794 | 19043 ft | 388 kts | 246° |
| 2026-05-06 11:06 | 42.70948 | -69.89127 | 18520 ft | 382 kts | 246° |
| 2026-05-06 11:06 | 42.69902 | -69.92438 | 17898 ft | 378 kts | 246° |
| 2026-05-06 11:06 | 42.68869 | -69.95706 | 17197 ft | 374 kts | 246° |
| 2026-05-06 11:06 | 42.67847 | -69.98936 | 16564 ft | 370 kts | 245° |
| 2026-05-06 11:07 | 42.66837 | -70.02123 | 15915 ft | 363 kts | 245° |
| 2026-05-06 11:07 | 42.65856 | -70.05218 | 14874 ft | 353 kts | 245° |
| 2026-05-06 11:07 | 42.64901 | -70.08225 | 14422 ft | 341 kts | 245° |
| 2026-05-06 11:07 | 42.63982 | -70.11120 | 14302 ft | 325 kts | 244° |
| 2026-05-06 11:08 | 42.63108 | -70.13867 | 14177 ft | 310 kts | 244° |
| 2026-05-06 11:08 | 42.62274 | -70.16487 | 14058 ft | 296 kts | 244° |
| 2026-05-06 11:08 | 42.61476 | -70.18989 | 13932 ft | 282 kts | 244° |
| 2026-05-06 11:08 | 42.60712 | -70.21394 | 13685 ft | 274 kts | 244° |
| 2026-05-06 11:09 | 42.60168 | -70.23848 | 13350 ft | 272 kts | 256° |
| 2026-05-06 11:09 | 42.59976 | -70.26400 | 12947 ft | 270 kts | 261° |
| 2026-05-06 11:09 | 42.59868 | -70.28919 | 12618 ft | 265 kts | 261° |
| 2026-05-06 11:09 | 42.59759 | -70.31366 | 12355 ft | 258 kts | 259° |
| 2026-05-06 11:10 | 42.59542 | -70.33783 | 11921 ft | 256 kts | 257° |
| 2026-05-06 11:10 | 42.59303 | -70.36167 | 11261 ft | 258 kts | 257° |
| 2026-05-06 11:10 | 42.59054 | -70.38572 | 10492 ft | 258 kts | 257° |
| 2026-05-06 11:10 | 42.58798 | -70.40980 | 9731 ft | 258 kts | 256° |
| 2026-05-06 11:11 | 42.58537 | -70.43398 | 8890 ft | 256 kts | 256° |
| 2026-05-06 11:11 | 42.58278 | -70.45770 | 8078 ft | 256 kts | 256° |
| 2026-05-06 11:11 | 42.58016 | -70.48159 | 7257 ft | 256 kts | 256° |
| 2026-05-06 11:11 | 42.57756 | -70.50525 | 6723 ft | 251 kts | 256° |
| 2026-05-06 11:12 | 42.57500 | -70.52858 | 6472 ft | 249 kts | 256° |
| 2026-05-06 11:12 | 42.57243 | -70.55170 | 6234 ft | 248 kts | 256° |
| 2026-05-06 11:12 | 42.56986 | -70.57480 | 5967 ft | 246 kts | 256° |
| 2026-05-06 11:12 | 42.56732 | -70.59764 | 5708 ft | 245 kts | 256° |
| 2026-05-06 11:13 | 42.56474 | -70.62069 | 5465 ft | 244 kts | 257° |
| 2026-05-06 11:13 | 42.56221 | -70.64335 | 5222 ft | 242 kts | 256° |
| 2026-05-06 11:13 | 42.55972 | -70.66561 | 4981 ft | 241 kts | 257° |
| 2026-05-06 11:13 | 42.55722 | -70.68792 | 4740 ft | 240 kts | 257° |
| 2026-05-06 11:14 | 42.55475 | -70.70995 | 4497 ft | 238 kts | 257° |
| 2026-05-06 11:14 | 42.55226 | -70.73206 | 4249 ft | 236 kts | 257° |
| 2026-05-06 11:14 | 42.54979 | -70.75402 | 4014 ft | 235 kts | 257° |
| 2026-05-06 11:14 | 42.54739 | -70.77528 | 3788 ft | 235 kts | 257° |
| 2026-05-06 11:15 | 42.54493 | -70.79700 | 3544 ft | 232 kts | 257° |
| 2026-05-06 11:15 | 42.54250 | -70.81852 | 3316 ft | 230 kts | 257° |
| 2026-05-06 11:15 | 42.54011 | -70.83968 | 3103 ft | 223 kts | 257° |
| 2026-05-06 11:15 | 42.53774 | -70.85996 | 2892 ft | 212 kts | 255° |
| 2026-05-06 11:16 | 42.53423 | -70.87882 | 2697 ft | 202 kts | 248° |
| 2026-05-06 11:16 | 42.52876 | -70.89592 | 2502 ft | 193 kts | 240° |
| 2026-05-06 11:16 | 42.52163 | -70.91072 | 2374 ft | 182 kts | 232° |
| 2026-05-06 11:16 | 42.51332 | -70.92302 | 2715 ft | 172 kts | 225° |
| 2026-05-06 11:17 | 42.50484 | -70.93259 | 2905 ft | 149 kts | 220° |
| 2026-05-06 11:17 | 42.49626 | -70.93978 | 2778 ft | 142 kts | 213° |
| 2026-05-06 11:17 | 42.48736 | -70.94519 | 2467 ft | 138 kts | 210° |
| 2026-05-06 11:17 | 42.47878 | -70.94966 | 2232 ft | 126 kts | 209° |
| 2026-05-06 11:18 | 42.47096 | -70.95369 | 2076 ft | 116 kts | 208° |
| 2026-05-06 11:18 | 42.46348 | -70.95728 | 1916 ft | 112 kts | 208° |
| 2026-05-06 11:18 | 42.45624 | -70.96083 | 1771 ft | 111 kts | 207° |
| 2026-05-06 11:18 | 42.44900 | -70.96438 | 1642 ft | 111 kts | 206° |
| 2026-05-06 11:19 | 42.44167 | -70.96794 | 1474 ft | 114 kts | 206° |